<?xml version='1.0' encoding='utf-8'?>
<gpx xmlns="http://www.topografix.com/GPX/1/1" creator="HOLUX ezTour Plus" version="1.1">
<metadata>
<link href="http://www.holux.com"><text>HOLUX Technology, Inc.</text></link>
<time>2013-11-27T20:35:27Z</time></metadata>
<trk>
<name>Holux2013/11/23_07:37</name>
<trkseg>
<trkpt lat="30.618640900" lon="34.801864624">
<ele>836.9</ele>
<time>2013-11-23T05:37:04Z</time>
<speed>0.060000</speed>
<extensions>
<speed>0.1</speed>
<temp>0.00</temp>
<bpm>0</bpm>
<rpm>0.00</rpm>
</extensions>
</trkpt>
<trkpt lat="30.618616104" lon="34.801528931">
<ele>836.3</ele>
<time>2013-11-23T05:45:34Z</time>
<speed>0.230000</speed>
<extensions>
<speed>0.2</speed>
<temp>0.00</temp>
<bpm>0</bpm>
<rpm>0.00</rpm>
</extensions>
</trkpt>
<trkpt lat="30.618471146" lon="34.801536560">
<ele>836.4</ele>
<time>2013-11-23T05:46:44Z</time>
<speed>0.070000</speed>
<extensions>
<speed>0.1</speed>
<temp>0.00</temp>
<bpm>0</bpm>
<rpm>0.00</rpm>
</extensions>
</trkpt>
<trkpt lat="30.618551254" lon="34.801731110">
<ele>836.9</ele>
<time>2013-11-23T05:49:59Z</time>
<speed>2.320000</speed>
<extensions>
<speed>2.3</speed>
<temp>0.00</temp>
<bpm>0</bpm>
<rpm>0.00</rpm>
</extensions>
</trkpt>
<trkpt lat="30.618438721" lon="34.800529480">
<ele>832.5</ele>
<time>2013-11-23T05:50:29Z</time>
<speed>4.800000</speed>
<extensions>
<speed>4.8</speed>
<temp>0.00</temp>
<bpm>0</bpm>
<rpm>0.00</rpm>
</extensions>
</trkpt>
<trkpt lat="30.618303299" lon="34.800407410">
<ele>832.2</ele>
<time>2013-11-23T05:50:34Z</time>
<speed>4.210000</speed>
<extensions>
<speed>4.2</speed>
<temp>0.00</temp>
<bpm>0</bpm>
<rpm>0.00</rpm>
</extensions>
</trkpt>
<trkpt lat="30.617818832" lon="34.800617218">
<ele>834.4</ele>
<time>2013-11-23T05:50:49Z</time>
<speed>3.200000</speed>
<extensions>
<speed>3.2</speed>
<temp>0.00</temp>
<bpm>0</bpm>
<rpm>0.00</rpm>
</extensions>
</trkpt>
<trkpt lat="30.616731644" lon="34.800460815">
<ele>835.5</ele>
<time>2013-11-23T05:51:19Z</time>
<speed>2.970000</speed>
<extensions>
<speed>3.0</speed>
<temp>0.00</temp>
<bpm>0</bpm>
<rpm>0.00</rpm>
</extensions>
</trkpt>
<trkpt lat="30.616525650" lon="34.800682068">
<ele>836.3</ele>
<time>2013-11-23T05:51:29Z</time>
<speed>3.830000</speed>
<extensions>
<speed>3.8</speed>
<temp>0.00</temp>
<bpm>0</bpm>
<rpm>0.00</rpm>
</extensions>
</trkpt>
<trkpt lat="30.616397858" lon="34.801403046">
<ele>838.5</ele>
<time>2013-11-23T05:51:49Z</time>
<speed>4.190000</speed>
<extensions>
<speed>4.2</speed>
<temp>0.00</temp>
<bpm>0</bpm>
<rpm>0.00</rpm>
</extensions>
</trkpt>
<trkpt lat="30.616245270" lon="34.803318024">
<ele>839.7</ele>
<time>2013-11-23T05:52:29Z</time>
<speed>4.890000</speed>
<extensions>
<speed>4.9</speed>
<temp>0.00</temp>
<bpm>0</bpm>
<rpm>0.00</rpm>
</extensions>
</trkpt>
<trkpt lat="30.616085052" lon="34.803440094">
<ele>839.8</ele>
<time>2013-11-23T05:52:34Z</time>
<speed>4.630000</speed>
<extensions>
<speed>4.6</speed>
<temp>0.00</temp>
<bpm>0</bpm>
<rpm>0.00</rpm>
</extensions>
</trkpt>
<trkpt lat="30.614215851" lon="34.803459167">
<ele>835.2</ele>
<time>2013-11-23T05:53:19Z</time>
<speed>4.570000</speed>
<extensions>
<speed>4.6</speed>
<temp>0.00</temp>
<bpm>0</bpm>
<rpm>0.00</rpm>
</extensions>
</trkpt>
<trkpt lat="30.613256454" lon="34.803794861">
<ele>835.4</ele>
<time>2013-11-23T05:53:44Z</time>
<speed>4.240000</speed>
<extensions>
<speed>4.2</speed>
<temp>0.00</temp>
<bpm>0</bpm>
<rpm>0.00</rpm>
</extensions>
</trkpt>
<trkpt lat="30.612771988" lon="34.803680420">
<ele>836.6</ele>
<time>2013-11-23T05:53:59Z</time>
<speed>3.180000</speed>
<extensions>
<speed>3.2</speed>
<temp>0.00</temp>
<bpm>0</bpm>
<rpm>0.00</rpm>
</extensions>
</trkpt>
<trkpt lat="30.612232208" lon="34.804298401">
<ele>840.0</ele>
<time>2013-11-23T05:54:34Z</time>
<speed>2.140000</speed>
<extensions>
<speed>2.1</speed>
<temp>0.00</temp>
<bpm>0</bpm>
<rpm>0.00</rpm>
</extensions>
</trkpt>
<trkpt lat="30.612483978" lon="34.804714203">
<ele>838.6</ele>
<time>2013-11-23T05:55:04Z</time>
<speed>0.890000</speed>
<extensions>
<speed>0.9</speed>
<temp>0.00</temp>
<bpm>0</bpm>
<rpm>0.00</rpm>
</extensions>
</trkpt>
<trkpt lat="30.612232208" lon="34.804382324">
<ele>839.9</ele>
<time>2013-11-23T06:08:19Z</time>
<speed>1.440000</speed>
<extensions>
<speed>1.4</speed>
<temp>0.00</temp>
<bpm>0</bpm>
<rpm>0.00</rpm>
</extensions>
</trkpt>
<trkpt lat="30.613100052" lon="34.804336548">
<ele>835.0</ele>
<time>2013-11-23T06:08:44Z</time>
<speed>5.490000</speed>
<extensions>
<speed>5.5</speed>
<temp>0.00</temp>
<bpm>0</bpm>
<rpm>0.00</rpm>
</extensions>
</trkpt>
<trkpt lat="30.613134384" lon="34.803829193">
<ele>835.8</ele>
<time>2013-11-23T06:08:54Z</time>
<speed>4.690000</speed>
<extensions>
<speed>4.7</speed>
<temp>0.00</temp>
<bpm>0</bpm>
<rpm>0.00</rpm>
</extensions>
</trkpt>
<trkpt lat="30.612720490" lon="34.803623199">
<ele>836.7</ele>
<time>2013-11-23T06:09:09Z</time>
<speed>3.950000</speed>
<extensions>
<speed>4.0</speed>
<temp>0.00</temp>
<bpm>0</bpm>
<rpm>0.00</rpm>
</extensions>
</trkpt>
<trkpt lat="30.611673355" lon="34.802585602">
<ele>837.7</ele>
<time>2013-11-23T06:09:49Z</time>
<speed>4.000000</speed>
<extensions>
<speed>4.0</speed>
<temp>0.00</temp>
<bpm>0</bpm>
<rpm>0.00</rpm>
</extensions>
</trkpt>
<trkpt lat="30.610494614" lon="34.801921844">
<ele>842.2</ele>
<time>2013-11-23T06:10:39Z</time>
<speed>2.040000</speed>
<extensions>
<speed>2.0</speed>
<temp>0.00</temp>
<bpm>0</bpm>
<rpm>0.00</rpm>
</extensions>
</trkpt>
<trkpt lat="30.608949661" lon="34.800765991">
<ele>849.6</ele>
<time>2013-11-23T06:12:04Z</time>
<speed>1.700000</speed>
<extensions>
<speed>1.7</speed>
<temp>0.00</temp>
<bpm>0</bpm>
<rpm>0.00</rpm>
</extensions>
</trkpt>
<trkpt lat="30.608205795" lon="34.799648285">
<ele>845.3</ele>
<time>2013-11-23T06:12:39Z</time>
<speed>6.260000</speed>
<extensions>
<speed>6.3</speed>
<temp>0.00</temp>
<bpm>0</bpm>
<rpm>0.00</rpm>
</extensions>
</trkpt>
<trkpt lat="30.608053207" lon="34.798065186">
<ele>837.8</ele>
<time>2013-11-23T06:13:04Z</time>
<speed>5.250000</speed>
<extensions>
<speed>5.2</speed>
<temp>0.00</temp>
<bpm>0</bpm>
<rpm>0.00</rpm>
</extensions>
</trkpt>
<trkpt lat="30.609193802" lon="34.795543671">
<ele>825.7</ele>
<time>2013-11-23T06:13:44Z</time>
<speed>1.370000</speed>
<extensions>
<speed>1.4</speed>
<temp>0.00</temp>
<bpm>0</bpm>
<rpm>0.00</rpm>
</extensions>
</trkpt>
<trkpt lat="30.608133316" lon="34.797744751">
<ele>836.2</ele>
<time>2013-11-23T06:14:49Z</time>
<speed>4.140000</speed>
<extensions>
<speed>4.1</speed>
<temp>0.00</temp>
<bpm>0</bpm>
<rpm>0.00</rpm>
</extensions>
</trkpt>
<trkpt lat="30.607818604" lon="34.799057007">
<ele>842.4</ele>
<time>2013-11-23T06:15:34Z</time>
<speed>1.230000</speed>
<extensions>
<speed>1.2</speed>
<temp>0.00</temp>
<bpm>0</bpm>
<rpm>0.00</rpm>
</extensions>
</trkpt>
<trkpt lat="30.608394623" lon="34.800415039">
<ele>849.9</ele>
<time>2013-11-23T06:16:39Z</time>
<speed>2.900000</speed>
<extensions>
<speed>2.9</speed>
<temp>0.00</temp>
<bpm>0</bpm>
<rpm>0.00</rpm>
</extensions>
</trkpt>
<trkpt lat="30.609350204" lon="34.801353455">
<ele>845.6</ele>
<time>2013-11-23T06:17:09Z</time>
<speed>5.510000</speed>
<extensions>
<speed>5.5</speed>
<temp>0.00</temp>
<bpm>0</bpm>
<rpm>0.00</rpm>
</extensions>
</trkpt>
<trkpt lat="30.609304428" lon="34.801605225">
<ele>844.7</ele>
<time>2013-11-23T06:17:14Z</time>
<speed>5.210000</speed>
<extensions>
<speed>5.2</speed>
<temp>0.00</temp>
<bpm>0</bpm>
<rpm>0.00</rpm>
</extensions>
</trkpt>
<trkpt lat="30.609119415" lon="34.801753998">
<ele>845.4</ele>
<time>2013-11-23T06:17:19Z</time>
<speed>4.600000</speed>
<extensions>
<speed>4.6</speed>
<temp>0.00</temp>
<bpm>0</bpm>
<rpm>0.00</rpm>
</extensions>
</trkpt>
<trkpt lat="30.608530045" lon="34.801525116">
<ele>847.5</ele>
<time>2013-11-23T06:17:39Z</time>
<speed>3.200000</speed>
<extensions>
<speed>3.2</speed>
<temp>0.00</temp>
<bpm>0</bpm>
<rpm>0.00</rpm>
</extensions>
</trkpt>
<trkpt lat="30.607740402" lon="34.800823212">
<ele>850.8</ele>
<time>2013-11-23T06:18:19Z</time>
<speed>2.340000</speed>
<extensions>
<speed>2.3</speed>
<temp>0.00</temp>
<bpm>0</bpm>
<rpm>0.00</rpm>
</extensions>
</trkpt>
<trkpt lat="30.605819702" lon="34.802173615">
<ele>864.0</ele>
<time>2013-11-23T06:19:49Z</time>
<speed>2.610000</speed>
<extensions>
<speed>2.6</speed>
<temp>0.00</temp>
<bpm>0</bpm>
<rpm>0.00</rpm>
</extensions>
</trkpt>
<trkpt lat="30.605808258" lon="34.802398682">
<ele>864.5</ele>
<time>2013-11-23T06:19:59Z</time>
<speed>3.190000</speed>
<extensions>
<speed>3.2</speed>
<temp>0.00</temp>
<bpm>0</bpm>
<rpm>0.00</rpm>
</extensions>
</trkpt>
<trkpt lat="30.606655121" lon="34.803867340">
<ele>862.9</ele>
<time>2013-11-23T06:20:39Z</time>
<speed>4.840000</speed>
<extensions>
<speed>4.8</speed>
<temp>0.00</temp>
<bpm>0</bpm>
<rpm>0.00</rpm>
</extensions>
</trkpt>
<trkpt lat="30.606668472" lon="34.804008484">
<ele>862.1</ele>
<time>2013-11-23T06:20:44Z</time>
<speed>1.940000</speed>
<extensions>
<speed>1.9</speed>
<temp>0.00</temp>
<bpm>0</bpm>
<rpm>0.00</rpm>
</extensions>
</trkpt>
<trkpt lat="30.606241226" lon="34.804382324">
<ele>824.6</ele>
<time>2013-11-23T06:22:04Z</time>
<extensions>
<speed>0.0</speed>
<temp>0.00</temp>
<bpm>0</bpm>
<rpm>0.00</rpm>
</extensions>
</trkpt>
<trkpt lat="30.608318329" lon="34.802761078">
<ele>850.2</ele>
<time>2013-11-23T06:24:44Z</time>
<speed>4.120000</speed>
<extensions>
<speed>4.1</speed>
<temp>0.00</temp>
<bpm>0</bpm>
<rpm>0.00</rpm>
</extensions>
</trkpt>
<trkpt lat="30.608367920" lon="34.801433563">
<ele>847.7</ele>
<time>2013-11-23T06:25:14Z</time>
<speed>2.930000</speed>
<extensions>
<speed>2.9</speed>
<temp>0.00</temp>
<bpm>0</bpm>
<rpm>0.00</rpm>
</extensions>
</trkpt>
<trkpt lat="30.606243134" lon="34.799564362">
<ele>848.9</ele>
<time>2013-11-23T06:26:59Z</time>
<speed>4.140000</speed>
<extensions>
<speed>4.1</speed>
<temp>0.00</temp>
<bpm>0</bpm>
<rpm>0.00</rpm>
</extensions>
</trkpt>
<trkpt lat="30.606130600" lon="34.799381256">
<ele>847.8</ele>
<time>2013-11-23T06:27:04Z</time>
<speed>4.440000</speed>
<extensions>
<speed>4.4</speed>
<temp>0.00</temp>
<bpm>0</bpm>
<rpm>0.00</rpm>
</extensions>
</trkpt>
<trkpt lat="30.606431961" lon="34.798763275">
<ele>843.8</ele>
<time>2013-11-23T06:27:19Z</time>
<speed>3.730000</speed>
<extensions>
<speed>3.7</speed>
<temp>0.00</temp>
<bpm>0</bpm>
<rpm>0.00</rpm>
</extensions>
</trkpt>
<trkpt lat="30.605594635" lon="34.797767639">
<ele>844.6</ele>
<time>2013-11-23T06:28:04Z</time>
<speed>2.310000</speed>
<extensions>
<speed>2.3</speed>
<temp>0.00</temp>
<bpm>0</bpm>
<rpm>0.00</rpm>
</extensions>
</trkpt>
<trkpt lat="30.605220795" lon="34.797798157">
<ele>845.4</ele>
<time>2013-11-23T06:28:29Z</time>
<speed>1.400000</speed>
<extensions>
<speed>1.4</speed>
<temp>0.00</temp>
<bpm>0</bpm>
<rpm>0.00</rpm>
</extensions>
</trkpt>
<trkpt lat="30.603813171" lon="34.796791077">
<ele>858.6</ele>
<time>2013-11-23T06:30:19Z</time>
<speed>1.330000</speed>
<extensions>
<speed>1.3</speed>
<temp>0.00</temp>
<bpm>0</bpm>
<rpm>0.00</rpm>
</extensions>
</trkpt>
<trkpt lat="30.602991104" lon="34.797248840">
<ele>864.8</ele>
<time>2013-11-23T06:31:19Z</time>
<speed>2.180000</speed>
<extensions>
<speed>2.2</speed>
<temp>0.00</temp>
<bpm>0</bpm>
<rpm>0.00</rpm>
</extensions>
</trkpt>
<trkpt lat="30.602773666" lon="34.797214508">
<ele>854.5</ele>
<time>2013-11-23T06:44:59Z</time>
<speed>0.020000</speed>
<extensions>
<speed>0.0</speed>
<temp>0.00</temp>
<bpm>0</bpm>
<rpm>0.00</rpm>
</extensions>
</trkpt>
<trkpt lat="30.603113174" lon="34.797187805">
<ele>864.8</ele>
<time>2013-11-23T06:45:39Z</time>
<speed>3.510000</speed>
<extensions>
<speed>3.5</speed>
<temp>0.00</temp>
<bpm>0</bpm>
<rpm>0.00</rpm>
</extensions>
</trkpt>
<trkpt lat="30.603588104" lon="34.796833038">
<ele>861.4</ele>
<time>2013-11-23T06:45:54Z</time>
<speed>4.990000</speed>
<extensions>
<speed>5.0</speed>
<temp>0.00</temp>
<bpm>0</bpm>
<rpm>0.00</rpm>
</extensions>
</trkpt>
<trkpt lat="30.603836060" lon="34.796882629">
<ele>857.4</ele>
<time>2013-11-23T06:45:59Z</time>
<speed>6.820000</speed>
<extensions>
<speed>6.8</speed>
<temp>0.00</temp>
<bpm>0</bpm>
<rpm>0.00</rpm>
</extensions>
</trkpt>
<trkpt lat="30.605569839" lon="34.798149109">
<ele>844.1</ele>
<time>2013-11-23T06:46:29Z</time>
<speed>5.830000</speed>
<extensions>
<speed>5.8</speed>
<temp>0.00</temp>
<bpm>0</bpm>
<rpm>0.00</rpm>
</extensions>
</trkpt>
<trkpt lat="30.605810165" lon="34.797710419">
<ele>843.5</ele>
<time>2013-11-23T06:46:54Z</time>
<speed>3.280000</speed>
<extensions>
<speed>3.3</speed>
<temp>0.00</temp>
<bpm>0</bpm>
<rpm>0.00</rpm>
</extensions>
</trkpt>
<trkpt lat="30.606672287" lon="34.797172546">
<ele>839.0</ele>
<time>2013-11-23T06:47:14Z</time>
<speed>7.390000</speed>
<extensions>
<speed>7.4</speed>
<temp>0.00</temp>
<bpm>0</bpm>
<rpm>0.00</rpm>
</extensions>
</trkpt>
<trkpt lat="30.606897354" lon="34.796863556">
<ele>838.1</ele>
<time>2013-11-23T06:47:19Z</time>
<speed>8.050000</speed>
<extensions>
<speed>8.0</speed>
<temp>0.00</temp>
<bpm>0</bpm>
<rpm>0.00</rpm>
</extensions>
</trkpt>
<trkpt lat="30.607061386" lon="34.796051025">
<ele>836.3</ele>
<time>2013-11-23T06:47:29Z</time>
<speed>7.640000</speed>
<extensions>
<speed>7.6</speed>
<temp>0.00</temp>
<bpm>0</bpm>
<rpm>0.00</rpm>
</extensions>
</trkpt>
<trkpt lat="30.607025146" lon="34.795139313">
<ele>834.6</ele>
<time>2013-11-23T06:47:44Z</time>
<speed>3.810000</speed>
<extensions>
<speed>3.8</speed>
<temp>0.00</temp>
<bpm>0</bpm>
<rpm>0.00</rpm>
</extensions>
</trkpt>
<trkpt lat="30.607328415" lon="34.794567108">
<ele>837.2</ele>
<time>2013-11-23T06:48:04Z</time>
<speed>1.980000</speed>
<extensions>
<speed>2.0</speed>
<temp>0.00</temp>
<bpm>0</bpm>
<rpm>0.00</rpm>
</extensions>
</trkpt>
<trkpt lat="30.607839584" lon="34.795143127">
<ele>829.9</ele>
<time>2013-11-23T06:48:29Z</time>
<speed>5.540000</speed>
<extensions>
<speed>5.5</speed>
<temp>0.00</temp>
<bpm>0</bpm>
<rpm>0.00</rpm>
</extensions>
</trkpt>
<trkpt lat="30.609342575" lon="34.795146942">
<ele>824.3</ele>
<time>2013-11-23T06:49:04Z</time>
<speed>2.420000</speed>
<extensions>
<speed>2.4</speed>
<temp>0.00</temp>
<bpm>0</bpm>
<rpm>0.00</rpm>
</extensions>
</trkpt>
<trkpt lat="30.610437393" lon="34.793148041">
<ele>820.2</ele>
<time>2013-11-23T06:49:59Z</time>
<speed>4.460000</speed>
<extensions>
<speed>4.5</speed>
<temp>0.00</temp>
<bpm>0</bpm>
<rpm>0.00</rpm>
</extensions>
</trkpt>
<trkpt lat="30.610588074" lon="34.792240143">
<ele>819.4</ele>
<time>2013-11-23T06:50:19Z</time>
<speed>4.710000</speed>
<extensions>
<speed>4.7</speed>
<temp>0.00</temp>
<bpm>0</bpm>
<rpm>0.00</rpm>
</extensions>
</trkpt>
<trkpt lat="30.610300064" lon="34.791660309">
<ele>818.8</ele>
<time>2013-11-23T06:50:34Z</time>
<speed>3.020000</speed>
<extensions>
<speed>3.0</speed>
<temp>0.00</temp>
<bpm>0</bpm>
<rpm>0.00</rpm>
</extensions>
</trkpt>
<trkpt lat="30.609058380" lon="34.790691376">
<ele>823.2</ele>
<time>2013-11-23T06:51:24Z</time>
<speed>4.170000</speed>
<extensions>
<speed>4.2</speed>
<temp>0.00</temp>
<bpm>0</bpm>
<rpm>0.00</rpm>
</extensions>
</trkpt>
<trkpt lat="30.608736038" lon="34.789951324">
<ele>823.3</ele>
<time>2013-11-23T06:51:44Z</time>
<speed>4.310000</speed>
<extensions>
<speed>4.3</speed>
<temp>0.00</temp>
<bpm>0</bpm>
<rpm>0.00</rpm>
</extensions>
</trkpt>
<trkpt lat="30.608798981" lon="34.789176941">
<ele>824.9</ele>
<time>2013-11-23T06:51:59Z</time>
<speed>4.830000</speed>
<extensions>
<speed>4.8</speed>
<temp>0.00</temp>
<bpm>0</bpm>
<rpm>0.00</rpm>
</extensions>
</trkpt>
<trkpt lat="30.609447479" lon="34.787761688">
<ele>828.4</ele>
<time>2013-11-23T06:52:29Z</time>
<speed>5.040000</speed>
<extensions>
<speed>5.0</speed>
<temp>0.00</temp>
<bpm>0</bpm>
<rpm>0.00</rpm>
</extensions>
</trkpt>
<trkpt lat="30.609420776" lon="34.787315369">
<ele>829.8</ele>
<time>2013-11-23T06:52:39Z</time>
<speed>2.920000</speed>
<extensions>
<speed>2.9</speed>
<temp>0.00</temp>
<bpm>0</bpm>
<rpm>0.00</rpm>
</extensions>
</trkpt>
<trkpt lat="30.609191895" lon="34.786891937">
<ele>830.6</ele>
<time>2013-11-23T06:52:54Z</time>
<speed>3.490000</speed>
<extensions>
<speed>3.5</speed>
<temp>0.00</temp>
<bpm>0</bpm>
<rpm>0.00</rpm>
</extensions>
</trkpt>
<trkpt lat="30.608034134" lon="34.786010742">
<ele>835.4</ele>
<time>2013-11-23T06:53:39Z</time>
<speed>3.210000</speed>
<extensions>
<speed>3.2</speed>
<temp>0.00</temp>
<bpm>0</bpm>
<rpm>0.00</rpm>
</extensions>
</trkpt>
<trkpt lat="30.606441498" lon="34.785305023">
<ele>843.2</ele>
<time>2013-11-23T06:54:44Z</time>
<speed>2.700000</speed>
<extensions>
<speed>2.7</speed>
<temp>0.00</temp>
<bpm>0</bpm>
<rpm>0.00</rpm>
</extensions>
</trkpt>
<trkpt lat="30.605598450" lon="34.783557892">
<ele>842.4</ele>
<time>2013-11-23T06:55:29Z</time>
<speed>4.990000</speed>
<extensions>
<speed>5.0</speed>
<temp>0.00</temp>
<bpm>0</bpm>
<rpm>0.00</rpm>
</extensions>
</trkpt>
<trkpt lat="30.603776932" lon="34.782817841">
<ele>845.9</ele>
<time>2013-11-23T06:56:24Z</time>
<speed>1.800000</speed>
<extensions>
<speed>1.8</speed>
<temp>0.00</temp>
<bpm>0</bpm>
<rpm>0.00</rpm>
</extensions>
</trkpt>
<trkpt lat="30.605205536" lon="34.782974243">
<ele>848.1</ele>
<time>2013-11-23T06:57:04Z</time>
<speed>3.270000</speed>
<extensions>
<speed>3.3</speed>
<temp>0.00</temp>
<bpm>0</bpm>
<rpm>0.00</rpm>
</extensions>
</trkpt>
<trkpt lat="30.606107712" lon="34.782230377">
<ele>852.9</ele>
<time>2013-11-23T06:57:34Z</time>
<speed>6.980000</speed>
<extensions>
<speed>7.0</speed>
<temp>0.00</temp>
<bpm>0</bpm>
<rpm>0.00</rpm>
</extensions>
</trkpt>
<trkpt lat="30.606487274" lon="34.781486511">
<ele>845.4</ele>
<time>2013-11-23T06:57:44Z</time>
<speed>9.620000</speed>
<extensions>
<speed>9.6</speed>
<temp>0.00</temp>
<bpm>0</bpm>
<rpm>0.00</rpm>
</extensions>
</trkpt>
<trkpt lat="30.606693268" lon="34.779911041">
<ele>839.3</ele>
<time>2013-11-23T06:57:59Z</time>
<speed>9.900000</speed>
<extensions>
<speed>9.9</speed>
<temp>0.00</temp>
<bpm>0</bpm>
<rpm>0.00</rpm>
</extensions>
</trkpt>
<trkpt lat="30.607433319" lon="34.777725220">
<ele>833.8</ele>
<time>2013-11-23T06:58:24Z</time>
<speed>9.340000</speed>
<extensions>
<speed>9.3</speed>
<temp>0.00</temp>
<bpm>0</bpm>
<rpm>0.00</rpm>
</extensions>
</trkpt>
<trkpt lat="30.608242035" lon="34.777160645">
<ele>831.4</ele>
<time>2013-11-23T06:58:34Z</time>
<speed>10.830000</speed>
<extensions>
<speed>10.8</speed>
<temp>0.00</temp>
<bpm>0</bpm>
<rpm>0.00</rpm>
</extensions>
</trkpt>
<trkpt lat="30.608728409" lon="34.777099609">
<ele>830.7</ele>
<time>2013-11-23T06:58:39Z</time>
<speed>10.870000</speed>
<extensions>
<speed>10.9</speed>
<temp>0.00</temp>
<bpm>0</bpm>
<rpm>0.00</rpm>
</extensions>
</trkpt>
<trkpt lat="30.609991074" lon="34.777679443">
<ele>827.9</ele>
<time>2013-11-23T06:59:34Z</time>
<speed>0.030000</speed>
<extensions>
<speed>0.0</speed>
<temp>0.00</temp>
<bpm>0</bpm>
<rpm>0.00</rpm>
</extensions>
</trkpt>
<trkpt lat="30.610401154" lon="34.776969910">
<ele>823.9</ele>
<time>2013-11-23T07:02:09Z</time>
<speed>0.010000</speed>
<extensions>
<speed>0.0</speed>
<temp>0.00</temp>
<bpm>0</bpm>
<rpm>0.00</rpm>
</extensions>
</trkpt>
<trkpt lat="30.609991074" lon="34.777667999">
<ele>827.7</ele>
<time>2013-11-23T08:08:24Z</time>
<speed>0.630000</speed>
<extensions>
<speed>0.6</speed>
<temp>0.00</temp>
<bpm>0</bpm>
<rpm>0.00</rpm>
</extensions>
</trkpt>
<trkpt lat="30.608570099" lon="34.777149200">
<ele>831.9</ele>
<time>2013-11-23T08:09:14Z</time>
<speed>4.900000</speed>
<extensions>
<speed>4.9</speed>
<temp>0.00</temp>
<bpm>0</bpm>
<rpm>0.00</rpm>
</extensions>
</trkpt>
<trkpt lat="30.608005524" lon="34.777275085">
<ele>831.7</ele>
<time>2013-11-23T08:09:34Z</time>
<speed>3.460000</speed>
<extensions>
<speed>3.5</speed>
<temp>0.00</temp>
<bpm>0</bpm>
<rpm>0.00</rpm>
</extensions>
</trkpt>
<trkpt lat="30.607397079" lon="34.777851105">
<ele>834.5</ele>
<time>2013-11-23T08:09:59Z</time>
<speed>2.550000</speed>
<extensions>
<speed>2.6</speed>
<temp>0.00</temp>
<bpm>0</bpm>
<rpm>0.00</rpm>
</extensions>
</trkpt>
<trkpt lat="30.607219696" lon="34.778152466">
<ele>834.4</ele>
<time>2013-11-23T08:10:09Z</time>
<speed>2.470000</speed>
<extensions>
<speed>2.5</speed>
<temp>0.00</temp>
<bpm>0</bpm>
<rpm>0.00</rpm>
</extensions>
</trkpt>
<trkpt lat="30.607009888" lon="34.779315948">
<ele>838.1</ele>
<time>2013-11-23T08:10:39Z</time>
<speed>4.700000</speed>
<extensions>
<speed>4.7</speed>
<temp>0.00</temp>
<bpm>0</bpm>
<rpm>0.00</rpm>
</extensions>
</trkpt>
<trkpt lat="30.606601715" lon="34.780235291">
<ele>839.6</ele>
<time>2013-11-23T08:11:04Z</time>
<speed>3.990000</speed>
<extensions>
<speed>4.0</speed>
<temp>0.00</temp>
<bpm>0</bpm>
<rpm>0.00</rpm>
</extensions>
</trkpt>
<trkpt lat="30.606395721" lon="34.781776428">
<ele>847.2</ele>
<time>2013-11-23T08:12:09Z</time>
<speed>2.260000</speed>
<extensions>
<speed>2.3</speed>
<temp>0.00</temp>
<bpm>0</bpm>
<rpm>0.00</rpm>
</extensions>
</trkpt>
<trkpt lat="30.605621338" lon="34.782794952">
<ele>852.8</ele>
<time>2013-11-23T08:12:54Z</time>
<speed>3.900000</speed>
<extensions>
<speed>3.9</speed>
<temp>0.00</temp>
<bpm>0</bpm>
<rpm>0.00</rpm>
</extensions>
</trkpt>
<trkpt lat="30.605064392" lon="34.783020020">
<ele>846.9</ele>
<time>2013-11-23T08:13:09Z</time>
<speed>5.920000</speed>
<extensions>
<speed>5.9</speed>
<temp>0.00</temp>
<bpm>0</bpm>
<rpm>0.00</rpm>
</extensions>
</trkpt>
<trkpt lat="30.603199005" lon="34.782684326">
<ele>847.5</ele>
<time>2013-11-23T08:13:44Z</time>
<speed>4.690000</speed>
<extensions>
<speed>4.7</speed>
<temp>0.00</temp>
<bpm>0</bpm>
<rpm>0.00</rpm>
</extensions>
</trkpt>
<trkpt lat="30.602872849" lon="34.782318115">
<ele>849.9</ele>
<time>2013-11-23T08:13:54Z</time>
<speed>5.350000</speed>
<extensions>
<speed>5.4</speed>
<temp>0.00</temp>
<bpm>0</bpm>
<rpm>0.00</rpm>
</extensions>
</trkpt>
<trkpt lat="30.602483749" lon="34.781105042">
<ele>852.6</ele>
<time>2013-11-23T08:14:19Z</time>
<speed>4.390000</speed>
<extensions>
<speed>4.4</speed>
<temp>0.00</temp>
<bpm>0</bpm>
<rpm>0.00</rpm>
</extensions>
</trkpt>
<trkpt lat="30.601188660" lon="34.779911041">
<ele>859.7</ele>
<time>2013-11-23T08:15:09Z</time>
<speed>3.520000</speed>
<extensions>
<speed>3.5</speed>
<temp>0.00</temp>
<bpm>0</bpm>
<rpm>0.00</rpm>
</extensions>
</trkpt>
<trkpt lat="30.600591660" lon="34.778614044">
<ele>865.6</ele>
<time>2013-11-23T08:15:44Z</time>
<speed>4.770000</speed>
<extensions>
<speed>4.8</speed>
<temp>0.00</temp>
<bpm>0</bpm>
<rpm>0.00</rpm>
</extensions>
</trkpt>
<trkpt lat="30.600740433" lon="34.778064728">
<ele>866.8</ele>
<time>2013-11-23T08:15:54Z</time>
<speed>6.940000</speed>
<extensions>
<speed>6.9</speed>
<temp>0.00</temp>
<bpm>0</bpm>
<rpm>0.00</rpm>
</extensions>
</trkpt>
<trkpt lat="30.602266312" lon="34.775745392">
<ele>849.8</ele>
<time>2013-11-23T08:16:19Z</time>
<speed>14.060000</speed>
<extensions>
<speed>14.1</speed>
<temp>0.00</temp>
<bpm>0</bpm>
<rpm>0.00</rpm>
</extensions>
</trkpt>
<trkpt lat="30.602327347" lon="34.775001526">
<ele>843.1</ele>
<time>2013-11-23T08:16:24Z</time>
<speed>12.840000</speed>
<extensions>
<speed>12.8</speed>
<temp>0.00</temp>
<bpm>0</bpm>
<rpm>0.00</rpm>
</extensions>
</trkpt>
<trkpt lat="30.600782394" lon="34.772521973">
<ele>849.1</ele>
<time>2013-11-23T08:17:04Z</time>
<speed>5.730000</speed>
<extensions>
<speed>5.7</speed>
<temp>0.00</temp>
<bpm>0</bpm>
<rpm>0.00</rpm>
</extensions>
</trkpt>
<trkpt lat="30.598657608" lon="34.771690369">
<ele>854.0</ele>
<time>2013-11-23T08:18:14Z</time>
<speed>4.310000</speed>
<extensions>
<speed>4.3</speed>
<temp>0.00</temp>
<bpm>0</bpm>
<rpm>0.00</rpm>
</extensions>
</trkpt>
<trkpt lat="30.598152161" lon="34.770030975">
<ele>858.5</ele>
<time>2013-11-23T08:18:49Z</time>
<speed>5.410000</speed>
<extensions>
<speed>5.4</speed>
<temp>0.00</temp>
<bpm>0</bpm>
<rpm>0.00</rpm>
</extensions>
</trkpt>
<trkpt lat="30.598136902" lon="34.769409180">
<ele>858.1</ele>
<time>2013-11-23T08:18:59Z</time>
<speed>6.830000</speed>
<extensions>
<speed>6.8</speed>
<temp>0.00</temp>
<bpm>0</bpm>
<rpm>0.00</rpm>
</extensions>
</trkpt>
<trkpt lat="30.598754883" lon="34.766201019">
<ele>843.2</ele>
<time>2013-11-23T08:19:29Z</time>
<speed>10.040000</speed>
<extensions>
<speed>10.0</speed>
<temp>0.00</temp>
<bpm>0</bpm>
<rpm>0.00</rpm>
</extensions>
</trkpt>
<trkpt lat="30.598632813" lon="34.765579224">
<ele>842.7</ele>
<time>2013-11-23T08:20:09Z</time>
<speed>1.190000</speed>
<extensions>
<speed>1.2</speed>
<temp>0.00</temp>
<bpm>0</bpm>
<rpm>0.00</rpm>
</extensions>
</trkpt>
<trkpt lat="30.598724365" lon="34.766155243">
<ele>844.2</ele>
<time>2013-11-23T08:20:29Z</time>
<speed>2.490000</speed>
<extensions>
<speed>2.5</speed>
<temp>0.00</temp>
<bpm>0</bpm>
<rpm>0.00</rpm>
</extensions>
</trkpt>
<trkpt lat="30.598234177" lon="34.768051147">
<ele>847.0</ele>
<time>2013-11-23T08:21:44Z</time>
<speed>1.420000</speed>
<extensions>
<speed>1.4</speed>
<temp>0.00</temp>
<bpm>0</bpm>
<rpm>0.00</rpm>
</extensions>
</trkpt>
<trkpt lat="30.598606110" lon="34.767738342">
<ele>846.3</ele>
<time>2013-11-23T08:21:59Z</time>
<speed>5.300000</speed>
<extensions>
<speed>5.3</speed>
<temp>0.00</temp>
<bpm>0</bpm>
<rpm>0.00</rpm>
</extensions>
</trkpt>
<trkpt lat="30.598997116" lon="34.766487122">
<ele>840.6</ele>
<time>2013-11-23T08:22:19Z</time>
<speed>7.930000</speed>
<extensions>
<speed>7.9</speed>
<temp>0.00</temp>
<bpm>0</bpm>
<rpm>0.00</rpm>
</extensions>
</trkpt>
<trkpt lat="30.600811005" lon="34.763774872">
<ele>831.8</ele>
<time>2013-11-23T08:23:04Z</time>
<speed>6.610000</speed>
<extensions>
<speed>6.6</speed>
<temp>0.00</temp>
<bpm>0</bpm>
<rpm>0.00</rpm>
</extensions>
</trkpt>
<trkpt lat="30.601406097" lon="34.761211395">
<ele>827.2</ele>
<time>2013-11-23T08:23:44Z</time>
<speed>5.430000</speed>
<extensions>
<speed>5.4</speed>
<temp>0.00</temp>
<bpm>0</bpm>
<rpm>0.00</rpm>
</extensions>
</trkpt>
<trkpt lat="30.602502823" lon="34.758941650">
<ele>822.6</ele>
<time>2013-11-23T08:24:24Z</time>
<speed>6.230000</speed>
<extensions>
<speed>6.2</speed>
<temp>0.00</temp>
<bpm>0</bpm>
<rpm>0.00</rpm>
</extensions>
</trkpt>
<trkpt lat="30.602586746" lon="34.757976532">
<ele>821.2</ele>
<time>2013-11-23T08:24:39Z</time>
<speed>6.130000</speed>
<extensions>
<speed>6.1</speed>
<temp>0.00</temp>
<bpm>0</bpm>
<rpm>0.00</rpm>
</extensions>
</trkpt>
<trkpt lat="30.602294922" lon="34.756427765">
<ele>819.2</ele>
<time>2013-11-23T08:25:04Z</time>
<speed>5.260000</speed>
<extensions>
<speed>5.3</speed>
<temp>0.00</temp>
<bpm>0</bpm>
<rpm>0.00</rpm>
</extensions>
</trkpt>
<trkpt lat="30.602447510" lon="34.755538940">
<ele>817.8</ele>
<time>2013-11-23T08:25:19Z</time>
<speed>6.890000</speed>
<extensions>
<speed>6.9</speed>
<temp>0.00</temp>
<bpm>0</bpm>
<rpm>0.00</rpm>
</extensions>
</trkpt>
<trkpt lat="30.603296280" lon="34.754669189">
<ele>815.0</ele>
<time>2013-11-23T08:25:39Z</time>
<speed>6.850000</speed>
<extensions>
<speed>6.8</speed>
<temp>0.00</temp>
<bpm>0</bpm>
<rpm>0.00</rpm>
</extensions>
</trkpt>
<trkpt lat="30.605342865" lon="34.751098633">
<ele>808.6</ele>
<time>2013-11-23T08:26:44Z</time>
<speed>6.300000</speed>
<extensions>
<speed>6.3</speed>
<temp>0.00</temp>
<bpm>0</bpm>
<rpm>0.00</rpm>
</extensions>
</trkpt>
<trkpt lat="30.607519150" lon="34.749134064">
<ele>805.2</ele>
<time>2013-11-23T08:27:39Z</time>
<speed>4.950000</speed>
<extensions>
<speed>4.9</speed>
<temp>0.00</temp>
<bpm>0</bpm>
<rpm>0.00</rpm>
</extensions>
</trkpt>
<trkpt lat="30.609046936" lon="34.748977661">
<ele>803.2</ele>
<time>2013-11-23T08:28:09Z</time>
<speed>5.900000</speed>
<extensions>
<speed>5.9</speed>
<temp>0.00</temp>
<bpm>0</bpm>
<rpm>0.00</rpm>
</extensions>
</trkpt>
<trkpt lat="30.610212326" lon="34.748432159">
<ele>802.3</ele>
<time>2013-11-23T08:28:34Z</time>
<speed>5.270000</speed>
<extensions>
<speed>5.3</speed>
<temp>0.00</temp>
<bpm>0</bpm>
<rpm>0.00</rpm>
</extensions>
</trkpt>
<trkpt lat="30.609642029" lon="34.746120453">
<ele>803.1</ele>
<time>2013-11-23T08:29:24Z</time>
<speed>1.990000</speed>
<extensions>
<speed>2.0</speed>
<temp>0.00</temp>
<bpm>0</bpm>
<rpm>0.00</rpm>
</extensions>
</trkpt>
<trkpt lat="30.607032776" lon="34.744613647">
<ele>808.2</ele>
<time>2013-11-23T08:31:04Z</time>
<speed>4.580000</speed>
<extensions>
<speed>4.6</speed>
<temp>0.00</temp>
<bpm>0</bpm>
<rpm>0.00</rpm>
</extensions>
</trkpt>
<trkpt lat="30.604404449" lon="34.743785858">
<ele>814.6</ele>
<time>2013-11-23T08:32:29Z</time>
<speed>4.090000</speed>
<extensions>
<speed>4.1</speed>
<temp>0.00</temp>
<bpm>0</bpm>
<rpm>0.00</rpm>
</extensions>
</trkpt>
<trkpt lat="30.603813171" lon="34.743888855">
<ele>819.0</ele>
<time>2013-11-23T08:32:49Z</time>
<speed>4.420000</speed>
<extensions>
<speed>4.4</speed>
<temp>0.00</temp>
<bpm>0</bpm>
<rpm>0.00</rpm>
</extensions>
</trkpt>
<trkpt lat="30.602737427" lon="34.742530823">
<ele>817.7</ele>
<time>2013-11-23T08:33:34Z</time>
<speed>3.680000</speed>
<extensions>
<speed>3.7</speed>
<temp>0.00</temp>
<bpm>0</bpm>
<rpm>0.00</rpm>
</extensions>
</trkpt>
<trkpt lat="30.601356506" lon="34.742065430">
<ele>818.8</ele>
<time>2013-11-23T08:34:19Z</time>
<speed>3.220000</speed>
<extensions>
<speed>3.2</speed>
<temp>0.00</temp>
<bpm>0</bpm>
<rpm>0.00</rpm>
</extensions>
</trkpt>
<trkpt lat="30.601249695" lon="34.741542816">
<ele>818.5</ele>
<time>2013-11-23T08:34:34Z</time>
<speed>3.650000</speed>
<extensions>
<speed>3.7</speed>
<temp>0.00</temp>
<bpm>0</bpm>
<rpm>0.00</rpm>
</extensions>
</trkpt>
<trkpt lat="30.599943161" lon="34.740058899">
<ele>823.5</ele>
<time>2013-11-23T08:35:39Z</time>
<speed>3.340000</speed>
<extensions>
<speed>3.3</speed>
<temp>0.00</temp>
<bpm>0</bpm>
<rpm>0.00</rpm>
</extensions>
</trkpt>
<trkpt lat="30.599475861" lon="34.739784241">
<ele>823.6</ele>
<time>2013-11-23T08:35:59Z</time>
<speed>2.950000</speed>
<extensions>
<speed>2.9</speed>
<temp>0.00</temp>
<bpm>0</bpm>
<rpm>0.00</rpm>
</extensions>
</trkpt>
<trkpt lat="30.598735809" lon="34.739723206">
<ele>825.3</ele>
<time>2013-11-23T08:36:24Z</time>
<speed>4.030000</speed>
<extensions>
<speed>4.0</speed>
<temp>0.00</temp>
<bpm>0</bpm>
<rpm>0.00</rpm>
</extensions>
</trkpt>
<trkpt lat="30.598001480" lon="34.738582611">
<ele>825.8</ele>
<time>2013-11-23T08:37:44Z</time>
<speed>3.420000</speed>
<extensions>
<speed>3.4</speed>
<temp>0.00</temp>
<bpm>0</bpm>
<rpm>0.00</rpm>
</extensions>
</trkpt>
<trkpt lat="30.597724915" lon="34.737670898">
<ele>828.7</ele>
<time>2013-11-23T08:38:09Z</time>
<speed>4.140000</speed>
<extensions>
<speed>4.1</speed>
<temp>0.00</temp>
<bpm>0</bpm>
<rpm>0.00</rpm>
</extensions>
</trkpt>
<trkpt lat="30.595695496" lon="34.737400055">
<ele>833.2</ele>
<time>2013-11-23T08:39:14Z</time>
<speed>3.810000</speed>
<extensions>
<speed>3.8</speed>
<temp>0.00</temp>
<bpm>0</bpm>
<rpm>0.00</rpm>
</extensions>
</trkpt>
<trkpt lat="30.594491959" lon="34.736129761">
<ele>837.0</ele>
<time>2013-11-23T08:40:09Z</time>
<speed>3.970000</speed>
<extensions>
<speed>4.0</speed>
<temp>0.00</temp>
<bpm>0</bpm>
<rpm>0.00</rpm>
</extensions>
</trkpt>
<trkpt lat="30.593566895" lon="34.735729218">
<ele>838.5</ele>
<time>2013-11-23T08:40:34Z</time>
<speed>4.380000</speed>
<extensions>
<speed>4.4</speed>
<temp>0.00</temp>
<bpm>0</bpm>
<rpm>0.00</rpm>
</extensions>
</trkpt>
<trkpt lat="30.592447281" lon="34.735576630">
<ele>839.9</ele>
<time>2013-11-23T08:41:09Z</time>
<speed>3.230000</speed>
<extensions>
<speed>3.2</speed>
<temp>0.00</temp>
<bpm>0</bpm>
<rpm>0.00</rpm>
</extensions>
</trkpt>
<trkpt lat="30.591873169" lon="34.735721588">
<ele>840.4</ele>
<time>2013-11-23T08:41:34Z</time>
<speed>3.450000</speed>
<extensions>
<speed>3.5</speed>
<temp>0.00</temp>
<bpm>0</bpm>
<rpm>0.00</rpm>
</extensions>
</trkpt>
<trkpt lat="30.590160370" lon="34.736618042">
<ele>844.6</ele>
<time>2013-11-23T08:42:34Z</time>
<speed>4.150000</speed>
<extensions>
<speed>4.1</speed>
<temp>0.00</temp>
<bpm>0</bpm>
<rpm>0.00</rpm>
</extensions>
</trkpt>
<trkpt lat="30.588489532" lon="34.735984802">
<ele>846.8</ele>
<time>2013-11-23T08:43:29Z</time>
<speed>3.390000</speed>
<extensions>
<speed>3.4</speed>
<temp>0.00</temp>
<bpm>0</bpm>
<rpm>0.00</rpm>
</extensions>
</trkpt>
<trkpt lat="30.587409973" lon="34.735965729">
<ele>850.4</ele>
<time>2013-11-23T08:44:04Z</time>
<speed>3.300000</speed>
<extensions>
<speed>3.3</speed>
<temp>0.00</temp>
<bpm>0</bpm>
<rpm>0.00</rpm>
</extensions>
</trkpt>
<trkpt lat="30.586467743" lon="34.736171722">
<ele>852.9</ele>
<time>2013-11-23T08:44:44Z</time>
<speed>2.550000</speed>
<extensions>
<speed>2.6</speed>
<temp>0.00</temp>
<bpm>0</bpm>
<rpm>0.00</rpm>
</extensions>
</trkpt>
<trkpt lat="30.586080551" lon="34.736518860">
<ele>856.0</ele>
<time>2013-11-23T08:45:04Z</time>
<speed>2.400000</speed>
<extensions>
<speed>2.4</speed>
<temp>0.00</temp>
<bpm>0</bpm>
<rpm>0.00</rpm>
</extensions>
</trkpt>
<trkpt lat="30.585395813" lon="34.737621307">
<ele>861.6</ele>
<time>2013-11-23T08:46:24Z</time>
<speed>1.390000</speed>
<extensions>
<speed>1.4</speed>
<temp>0.00</temp>
<bpm>0</bpm>
<rpm>0.00</rpm>
</extensions>
</trkpt>
<trkpt lat="30.584827423" lon="34.737888336">
<ele>864.5</ele>
<time>2013-11-23T08:46:59Z</time>
<speed>2.260000</speed>
<extensions>
<speed>2.3</speed>
<temp>0.00</temp>
<bpm>0</bpm>
<rpm>0.00</rpm>
</extensions>
</trkpt>
<trkpt lat="30.584096909" lon="34.737689972">
<ele>853.3</ele>
<time>2013-11-23T08:52:29Z</time>
<speed>0.300000</speed>
<extensions>
<speed>0.3</speed>
<temp>0.00</temp>
<bpm>0</bpm>
<rpm>0.00</rpm>
</extensions>
</trkpt>
<trkpt lat="30.583669662" lon="34.738105774">
<ele>847.2</ele>
<time>2013-11-23T08:53:29Z</time>
<speed>2.040000</speed>
<extensions>
<speed>2.0</speed>
<temp>0.00</temp>
<bpm>0</bpm>
<rpm>0.00</rpm>
</extensions>
</trkpt>
<trkpt lat="30.583223343" lon="34.739246368">
<ele>830.8</ele>
<time>2013-11-23T08:54:19Z</time>
<speed>2.790000</speed>
<extensions>
<speed>2.8</speed>
<temp>0.00</temp>
<bpm>0</bpm>
<rpm>0.00</rpm>
</extensions>
</trkpt>
<trkpt lat="30.582689285" lon="34.740085602">
<ele>820.5</ele>
<time>2013-11-23T08:54:49Z</time>
<speed>1.830000</speed>
<extensions>
<speed>1.8</speed>
<temp>0.00</temp>
<bpm>0</bpm>
<rpm>0.00</rpm>
</extensions>
</trkpt>
<trkpt lat="30.582252502" lon="34.740386963">
<ele>809.4</ele>
<time>2013-11-23T08:55:24Z</time>
<speed>1.010000</speed>
<extensions>
<speed>1.0</speed>
<temp>0.00</temp>
<bpm>0</bpm>
<rpm>0.00</rpm>
</extensions>
</trkpt>
<trkpt lat="30.582208633" lon="34.740703583">
<ele>807.5</ele>
<time>2013-11-23T08:56:09Z</time>
<speed>2.060000</speed>
<extensions>
<speed>2.1</speed>
<temp>0.00</temp>
<bpm>0</bpm>
<rpm>0.00</rpm>
</extensions>
</trkpt>
<trkpt lat="30.581842422" lon="34.740386963">
<ele>803.1</ele>
<time>2013-11-23T08:57:04Z</time>
<extensions>
<speed>0.0</speed>
<temp>0.00</temp>
<bpm>0</bpm>
<rpm>0.00</rpm>
</extensions>
</trkpt>
<trkpt lat="30.581190109" lon="34.740524292">
<ele>795.2</ele>
<time>2013-11-23T08:58:14Z</time>
<speed>0.560000</speed>
<extensions>
<speed>0.6</speed>
<temp>0.00</temp>
<bpm>0</bpm>
<rpm>0.00</rpm>
</extensions>
</trkpt>
<trkpt lat="30.581052780" lon="34.740276337">
<ele>788.2</ele>
<time>2013-11-23T09:00:29Z</time>
<speed>0.910000</speed>
<extensions>
<speed>0.9</speed>
<temp>0.00</temp>
<bpm>0</bpm>
<rpm>0.00</rpm>
</extensions>
</trkpt>
<trkpt lat="30.580490112" lon="34.740894318">
<ele>773.4</ele>
<time>2013-11-23T09:01:14Z</time>
<speed>1.960000</speed>
<extensions>
<speed>2.0</speed>
<temp>0.00</temp>
<bpm>0</bpm>
<rpm>0.00</rpm>
</extensions>
</trkpt>
<trkpt lat="30.580236435" lon="34.740638733">
<ele>767.1</ele>
<time>2013-11-23T09:01:49Z</time>
<speed>2.440000</speed>
<extensions>
<speed>2.4</speed>
<temp>0.00</temp>
<bpm>0</bpm>
<rpm>0.00</rpm>
</extensions>
</trkpt>
<trkpt lat="30.580120087" lon="34.739459991">
<ele>761.6</ele>
<time>2013-11-23T09:02:19Z</time>
<speed>2.020000</speed>
<extensions>
<speed>2.0</speed>
<temp>0.00</temp>
<bpm>0</bpm>
<rpm>0.00</rpm>
</extensions>
</trkpt>
<trkpt lat="30.579662323" lon="34.739059448">
<ele>752.6</ele>
<time>2013-11-23T09:03:34Z</time>
<speed>0.420000</speed>
<extensions>
<speed>0.4</speed>
<temp>0.00</temp>
<bpm>0</bpm>
<rpm>0.00</rpm>
</extensions>
</trkpt>
<trkpt lat="30.578927994" lon="34.738967896">
<ele>735.1</ele>
<time>2013-11-23T09:07:19Z</time>
<speed>0.490000</speed>
<extensions>
<speed>0.5</speed>
<temp>0.00</temp>
<bpm>0</bpm>
<rpm>0.00</rpm>
</extensions>
</trkpt>
<trkpt lat="30.578950882" lon="34.738502502">
<ele>732.7</ele>
<time>2013-11-23T09:08:49Z</time>
<speed>1.990000</speed>
<extensions>
<speed>2.0</speed>
<temp>0.00</temp>
<bpm>0</bpm>
<rpm>0.00</rpm>
</extensions>
</trkpt>
<trkpt lat="30.578807831" lon="34.738353729">
<ele>727.7</ele>
<time>2013-11-23T09:08:59Z</time>
<speed>2.210000</speed>
<extensions>
<speed>2.2</speed>
<temp>0.00</temp>
<bpm>0</bpm>
<rpm>0.00</rpm>
</extensions>
</trkpt>
<trkpt lat="30.578369141" lon="34.738162994">
<ele>716.1</ele>
<time>2013-11-23T09:09:54Z</time>
<speed>1.090000</speed>
<extensions>
<speed>1.1</speed>
<temp>0.00</temp>
<bpm>0</bpm>
<rpm>0.00</rpm>
</extensions>
</trkpt>
<trkpt lat="30.577291489" lon="34.737201691">
<ele>693.0</ele>
<time>2013-11-23T09:11:19Z</time>
<speed>2.340000</speed>
<extensions>
<speed>2.3</speed>
<temp>0.00</temp>
<bpm>0</bpm>
<rpm>0.00</rpm>
</extensions>
</trkpt>
<trkpt lat="30.576934814" lon="34.736667633">
<ele>688.1</ele>
<time>2013-11-23T09:12:09Z</time>
<speed>2.430000</speed>
<extensions>
<speed>2.4</speed>
<temp>0.00</temp>
<bpm>0</bpm>
<rpm>0.00</rpm>
</extensions>
</trkpt>
<trkpt lat="30.576402664" lon="34.736557007">
<ele>673.4</ele>
<time>2013-11-23T09:13:14Z</time>
<speed>1.850000</speed>
<extensions>
<speed>1.8</speed>
<temp>0.00</temp>
<bpm>0</bpm>
<rpm>0.00</rpm>
</extensions>
</trkpt>
<trkpt lat="30.576353073" lon="34.736118317">
<ele>672.3</ele>
<time>2013-11-23T09:13:34Z</time>
<speed>0.370000</speed>
<extensions>
<speed>0.4</speed>
<temp>0.00</temp>
<bpm>0</bpm>
<rpm>0.00</rpm>
</extensions>
</trkpt>
<trkpt lat="30.576562881" lon="34.735721588">
<ele>668.6</ele>
<time>2013-11-23T09:13:49Z</time>
<speed>3.520000</speed>
<extensions>
<speed>3.5</speed>
<temp>0.00</temp>
<bpm>0</bpm>
<rpm>0.00</rpm>
</extensions>
</trkpt>
<trkpt lat="30.576492310" lon="34.735290527">
<ele>664.0</ele>
<time>2013-11-23T09:13:59Z</time>
<speed>4.870000</speed>
<extensions>
<speed>4.9</speed>
<temp>0.00</temp>
<bpm>0</bpm>
<rpm>0.00</rpm>
</extensions>
</trkpt>
<trkpt lat="30.576332092" lon="34.735115051">
<ele>661.2</ele>
<time>2013-11-23T09:14:04Z</time>
<speed>5.210000</speed>
<extensions>
<speed>5.2</speed>
<temp>0.00</temp>
<bpm>0</bpm>
<rpm>0.00</rpm>
</extensions>
</trkpt>
<trkpt lat="30.575519562" lon="34.734947205">
<ele>646.2</ele>
<time>2013-11-23T09:14:34Z</time>
<speed>3.810000</speed>
<extensions>
<speed>3.8</speed>
<temp>0.00</temp>
<bpm>0</bpm>
<rpm>0.00</rpm>
</extensions>
</trkpt>
<trkpt lat="30.574922562" lon="34.736034393">
<ele>641.3</ele>
<time>2013-11-23T09:15:04Z</time>
<speed>4.280000</speed>
<extensions>
<speed>4.3</speed>
<temp>0.00</temp>
<bpm>0</bpm>
<rpm>0.00</rpm>
</extensions>
</trkpt>
<trkpt lat="30.575119019" lon="34.736446381">
<ele>639.6</ele>
<time>2013-11-23T09:15:34Z</time>
<speed>0.900000</speed>
<extensions>
<speed>0.9</speed>
<temp>0.00</temp>
<bpm>0</bpm>
<rpm>0.00</rpm>
</extensions>
</trkpt>
<trkpt lat="30.575052261" lon="34.736949921">
<ele>638.3</ele>
<time>2013-11-23T09:15:49Z</time>
<speed>4.690000</speed>
<extensions>
<speed>4.7</speed>
<temp>0.00</temp>
<bpm>0</bpm>
<rpm>0.00</rpm>
</extensions>
</trkpt>
<trkpt lat="30.574657440" lon="34.737644196">
<ele>633.7</ele>
<time>2013-11-23T09:16:09Z</time>
<speed>0.250000</speed>
<extensions>
<speed>0.2</speed>
<temp>0.00</temp>
<bpm>0</bpm>
<rpm>0.00</rpm>
</extensions>
</trkpt>
<trkpt lat="30.574497223" lon="34.738285065">
<ele>632.1</ele>
<time>2013-11-23T09:16:59Z</time>
<speed>3.800000</speed>
<extensions>
<speed>3.8</speed>
<temp>0.00</temp>
<bpm>0</bpm>
<rpm>0.00</rpm>
</extensions>
</trkpt>
<trkpt lat="30.573310852" lon="34.739242554">
<ele>626.2</ele>
<time>2013-11-23T09:17:44Z</time>
<speed>4.350000</speed>
<extensions>
<speed>4.3</speed>
<temp>0.00</temp>
<bpm>0</bpm>
<rpm>0.00</rpm>
</extensions>
</trkpt>
<trkpt lat="30.573343277" lon="34.739463806">
<ele>626.0</ele>
<time>2013-11-23T09:17:49Z</time>
<speed>4.180000</speed>
<extensions>
<speed>4.2</speed>
<temp>0.00</temp>
<bpm>0</bpm>
<rpm>0.00</rpm>
</extensions>
</trkpt>
<trkpt lat="30.573114395" lon="34.739902496">
<ele>626.0</ele>
<time>2013-11-23T09:18:04Z</time>
<speed>3.630000</speed>
<extensions>
<speed>3.6</speed>
<temp>0.00</temp>
<bpm>0</bpm>
<rpm>0.00</rpm>
</extensions>
</trkpt>
<trkpt lat="30.572223663" lon="34.740657806">
<ele>622.2</ele>
<time>2013-11-23T09:19:04Z</time>
<speed>3.760000</speed>
<extensions>
<speed>3.8</speed>
<temp>0.00</temp>
<bpm>0</bpm>
<rpm>0.00</rpm>
</extensions>
</trkpt>
<trkpt lat="30.572004318" lon="34.741069794">
<ele>620.7</ele>
<time>2013-11-23T09:19:14Z</time>
<speed>4.240000</speed>
<extensions>
<speed>4.2</speed>
<temp>0.00</temp>
<bpm>0</bpm>
<rpm>0.00</rpm>
</extensions>
</trkpt>
<trkpt lat="30.569461823" lon="34.742599487">
<ele>610.5</ele>
<time>2013-11-23T09:20:59Z</time>
<speed>3.220000</speed>
<extensions>
<speed>3.2</speed>
<temp>0.00</temp>
<bpm>0</bpm>
<rpm>0.00</rpm>
</extensions>
</trkpt>
<trkpt lat="30.568262100" lon="34.745220184">
<ele>602.2</ele>
<time>2013-11-23T09:22:14Z</time>
<speed>3.320000</speed>
<extensions>
<speed>3.3</speed>
<temp>0.00</temp>
<bpm>0</bpm>
<rpm>0.00</rpm>
</extensions>
</trkpt>
<trkpt lat="30.567190170" lon="34.746337891">
<ele>601.1</ele>
<time>2013-11-23T09:23:09Z</time>
<speed>1.740000</speed>
<extensions>
<speed>1.7</speed>
<temp>0.00</temp>
<bpm>0</bpm>
<rpm>0.00</rpm>
</extensions>
</trkpt>
<trkpt lat="30.566837311" lon="34.749362946">
<ele>599.3</ele>
<time>2013-11-23T09:25:04Z</time>
<speed>6.230000</speed>
<extensions>
<speed>6.2</speed>
<temp>0.00</temp>
<bpm>0</bpm>
<rpm>0.00</rpm>
</extensions>
</trkpt>
<trkpt lat="30.566816330" lon="34.750854492">
<ele>597.3</ele>
<time>2013-11-23T09:25:34Z</time>
<speed>2.820000</speed>
<extensions>
<speed>2.8</speed>
<temp>0.00</temp>
<bpm>0</bpm>
<rpm>0.00</rpm>
</extensions>
</trkpt>
<trkpt lat="30.567077637" lon="34.752094269">
<ele>595.3</ele>
<time>2013-11-23T09:27:44Z</time>
<speed>0.020000</speed>
<extensions>
<speed>0.0</speed>
<temp>0.00</temp>
<bpm>0</bpm>
<rpm>0.00</rpm>
</extensions>
</trkpt>
<trkpt lat="30.567155838" lon="34.753940582">
<ele>593.7</ele>
<time>2013-11-23T09:28:49Z</time>
<speed>3.790000</speed>
<extensions>
<speed>3.8</speed>
<temp>0.00</temp>
<bpm>0</bpm>
<rpm>0.00</rpm>
</extensions>
</trkpt>
<trkpt lat="30.566787720" lon="34.754890442">
<ele>592.4</ele>
<time>2013-11-23T09:29:14Z</time>
<speed>3.430000</speed>
<extensions>
<speed>3.4</speed>
<temp>0.00</temp>
<bpm>0</bpm>
<rpm>0.00</rpm>
</extensions>
</trkpt>
<trkpt lat="30.566076279" lon="34.755161285">
<ele>588.3</ele>
<time>2013-11-23T09:29:39Z</time>
<speed>2.560000</speed>
<extensions>
<speed>2.6</speed>
<temp>0.00</temp>
<bpm>0</bpm>
<rpm>0.00</rpm>
</extensions>
</trkpt>
<trkpt lat="30.565834045" lon="34.755489349">
<ele>586.9</ele>
<time>2013-11-23T09:29:49Z</time>
<speed>4.980000</speed>
<extensions>
<speed>5.0</speed>
<temp>0.00</temp>
<bpm>0</bpm>
<rpm>0.00</rpm>
</extensions>
</trkpt>
<trkpt lat="30.566534042" lon="34.758090973">
<ele>584.4</ele>
<time>2013-11-23T09:31:09Z</time>
<speed>3.800000</speed>
<extensions>
<speed>3.8</speed>
<temp>0.00</temp>
<bpm>0</bpm>
<rpm>0.00</rpm>
</extensions>
</trkpt>
<trkpt lat="30.566312790" lon="34.758480072">
<ele>584.8</ele>
<time>2013-11-23T09:31:24Z</time>
<speed>3.770000</speed>
<extensions>
<speed>3.8</speed>
<temp>0.00</temp>
<bpm>0</bpm>
<rpm>0.00</rpm>
</extensions>
</trkpt>
<trkpt lat="30.566900253" lon="34.759353638">
<ele>588.8</ele>
<time>2013-11-23T09:32:04Z</time>
<speed>3.360000</speed>
<extensions>
<speed>3.4</speed>
<temp>0.00</temp>
<bpm>0</bpm>
<rpm>0.00</rpm>
</extensions>
</trkpt>
<trkpt lat="30.567096710" lon="34.760272980">
<ele>588.3</ele>
<time>2013-11-23T09:32:34Z</time>
<speed>3.200000</speed>
<extensions>
<speed>3.2</speed>
<temp>0.00</temp>
<bpm>0</bpm>
<rpm>0.00</rpm>
</extensions>
</trkpt>
<trkpt lat="30.567014694" lon="34.762401581">
<ele>586.2</ele>
<time>2013-11-23T09:33:39Z</time>
<speed>2.330000</speed>
<extensions>
<speed>2.3</speed>
<temp>0.00</temp>
<bpm>0</bpm>
<rpm>0.00</rpm>
</extensions>
</trkpt>
<trkpt lat="30.566461563" lon="34.763660431">
<ele>587.3</ele>
<time>2013-11-23T09:35:09Z</time>
<speed>1.080000</speed>
<extensions>
<speed>1.1</speed>
<temp>0.00</temp>
<bpm>0</bpm>
<rpm>0.00</rpm>
</extensions>
</trkpt>
<trkpt lat="30.567163467" lon="34.764614105">
<ele>585.7</ele>
<time>2013-11-23T09:36:04Z</time>
<speed>3.140000</speed>
<extensions>
<speed>3.1</speed>
<temp>0.00</temp>
<bpm>0</bpm>
<rpm>0.00</rpm>
</extensions>
</trkpt>
<trkpt lat="30.567443848" lon="34.766948700">
<ele>584.4</ele>
<time>2013-11-23T09:37:09Z</time>
<speed>3.230000</speed>
<extensions>
<speed>3.2</speed>
<temp>0.00</temp>
<bpm>0</bpm>
<rpm>0.00</rpm>
</extensions>
</trkpt>
<trkpt lat="30.569011688" lon="34.770980835">
<ele>580.1</ele>
<time>2013-11-23T09:39:04Z</time>
<speed>4.230000</speed>
<extensions>
<speed>4.2</speed>
<temp>0.00</temp>
<bpm>0</bpm>
<rpm>0.00</rpm>
</extensions>
</trkpt>
<trkpt lat="30.568977356" lon="34.771598816">
<ele>583.0</ele>
<time>2013-11-23T09:39:19Z</time>
<speed>2.040000</speed>
<extensions>
<speed>2.0</speed>
<temp>0.00</temp>
<bpm>0</bpm>
<rpm>0.00</rpm>
</extensions>
</trkpt>
<trkpt lat="30.569412231" lon="34.772731781">
<ele>584.2</ele>
<time>2013-11-23T09:40:14Z</time>
<speed>4.120000</speed>
<extensions>
<speed>4.1</speed>
<temp>0.00</temp>
<bpm>0</bpm>
<rpm>0.00</rpm>
</extensions>
</trkpt>
<trkpt lat="30.569803238" lon="34.775089264">
<ele>583.7</ele>
<time>2013-11-23T09:41:14Z</time>
<speed>3.610000</speed>
<extensions>
<speed>3.6</speed>
<temp>0.00</temp>
<bpm>0</bpm>
<rpm>0.00</rpm>
</extensions>
</trkpt>
<trkpt lat="30.569776535" lon="34.777763367">
<ele>580.8</ele>
<time>2013-11-23T09:42:14Z</time>
<speed>5.560000</speed>
<extensions>
<speed>5.6</speed>
<temp>0.00</temp>
<bpm>0</bpm>
<rpm>0.00</rpm>
</extensions>
</trkpt>
<trkpt lat="30.570236206" lon="34.779613495">
<ele>578.8</ele>
<time>2013-11-23T09:43:04Z</time>
<speed>3.980000</speed>
<extensions>
<speed>4.0</speed>
<temp>0.00</temp>
<bpm>0</bpm>
<rpm>0.00</rpm>
</extensions>
</trkpt>
<trkpt lat="30.571155548" lon="34.781215668">
<ele>576.9</ele>
<time>2013-11-23T09:43:54Z</time>
<speed>4.260000</speed>
<extensions>
<speed>4.3</speed>
<temp>0.00</temp>
<bpm>0</bpm>
<rpm>0.00</rpm>
</extensions>
</trkpt>
<trkpt lat="30.571092606" lon="34.781650543">
<ele>578.0</ele>
<time>2013-11-23T09:44:19Z</time>
<speed>0.080000</speed>
<extensions>
<speed>0.1</speed>
<temp>0.00</temp>
<bpm>0</bpm>
<rpm>0.00</rpm>
</extensions>
</trkpt>
<trkpt lat="30.571256638" lon="34.782314301">
<ele>577.5</ele>
<time>2013-11-23T09:44:49Z</time>
<speed>3.320000</speed>
<extensions>
<speed>3.3</speed>
<temp>0.00</temp>
<bpm>0</bpm>
<rpm>0.00</rpm>
</extensions>
</trkpt>
<trkpt lat="30.572235107" lon="34.783641815">
<ele>574.9</ele>
<time>2013-11-23T09:45:34Z</time>
<speed>3.310000</speed>
<extensions>
<speed>3.3</speed>
<temp>0.00</temp>
<bpm>0</bpm>
<rpm>0.00</rpm>
</extensions>
</trkpt>
<trkpt lat="30.573095322" lon="34.785888672">
<ele>574.6</ele>
<time>2013-11-23T09:47:09Z</time>
<speed>4.090000</speed>
<extensions>
<speed>4.1</speed>
<temp>0.00</temp>
<bpm>0</bpm>
<rpm>0.00</rpm>
</extensions>
</trkpt>
<trkpt lat="30.573560715" lon="34.786334991">
<ele>574.9</ele>
<time>2013-11-23T09:47:24Z</time>
<speed>4.700000</speed>
<extensions>
<speed>4.7</speed>
<temp>0.00</temp>
<bpm>0</bpm>
<rpm>0.00</rpm>
</extensions>
</trkpt>
<trkpt lat="30.573823929" lon="34.787044525">
<ele>575.8</ele>
<time>2013-11-23T09:47:44Z</time>
<speed>3.260000</speed>
<extensions>
<speed>3.3</speed>
<temp>0.00</temp>
<bpm>0</bpm>
<rpm>0.00</rpm>
</extensions>
</trkpt>
<trkpt lat="30.574224472" lon="34.787567139">
<ele>570.8</ele>
<time>2013-11-23T09:47:59Z</time>
<speed>3.840000</speed>
<extensions>
<speed>3.8</speed>
<temp>0.00</temp>
<bpm>0</bpm>
<rpm>0.00</rpm>
</extensions>
</trkpt>
<trkpt lat="30.574125290" lon="34.788219452">
<ele>568.1</ele>
<time>2013-11-23T09:48:14Z</time>
<speed>5.280000</speed>
<extensions>
<speed>5.3</speed>
<temp>0.00</temp>
<bpm>0</bpm>
<rpm>0.00</rpm>
</extensions>
</trkpt>
<trkpt lat="30.574230194" lon="34.788341522">
<ele>567.9</ele>
<time>2013-11-23T09:48:19Z</time>
<speed>3.490000</speed>
<extensions>
<speed>3.5</speed>
<temp>0.00</temp>
<bpm>0</bpm>
<rpm>0.00</rpm>
</extensions>
</trkpt>
<trkpt lat="30.575647354" lon="34.788806915">
<ele>572.2</ele>
<time>2013-11-23T10:02:14Z</time>
<speed>2.490000</speed>
<extensions>
<speed>2.5</speed>
<temp>0.00</temp>
<bpm>0</bpm>
<rpm>0.00</rpm>
</extensions>
</trkpt>
<trkpt lat="30.578172684" lon="34.789081573">
<ele>568.7</ele>
<time>2013-11-23T10:04:29Z</time>
<speed>7.550000</speed>
<extensions>
<speed>7.6</speed>
<temp>0.00</temp>
<bpm>0</bpm>
<rpm>0.00</rpm>
</extensions>
</trkpt>
<trkpt lat="30.579353333" lon="34.789642334">
<ele>565.6</ele>
<time>2013-11-23T10:04:49Z</time>
<speed>6.590000</speed>
<extensions>
<speed>6.6</speed>
<temp>0.00</temp>
<bpm>0</bpm>
<rpm>0.00</rpm>
</extensions>
</trkpt>
<trkpt lat="30.579771042" lon="34.790023804">
<ele>566.8</ele>
<time>2013-11-23T10:04:59Z</time>
<speed>2.900000</speed>
<extensions>
<speed>2.9</speed>
<temp>0.00</temp>
<bpm>0</bpm>
<rpm>0.00</rpm>
</extensions>
</trkpt>
<trkpt lat="30.580234528" lon="34.791183472">
<ele>565.8</ele>
<time>2013-11-23T10:05:54Z</time>
<speed>3.410000</speed>
<extensions>
<speed>3.4</speed>
<temp>0.00</temp>
<bpm>0</bpm>
<rpm>0.00</rpm>
</extensions>
</trkpt>
<trkpt lat="30.580404282" lon="34.792560577">
<ele>557.0</ele>
<time>2013-11-23T10:06:24Z</time>
<speed>7.930000</speed>
<extensions>
<speed>7.9</speed>
<temp>0.00</temp>
<bpm>0</bpm>
<rpm>0.00</rpm>
</extensions>
</trkpt>
<trkpt lat="30.579648972" lon="34.796386719">
<ele>556.7</ele>
<time>2013-11-23T10:08:14Z</time>
<speed>3.100000</speed>
<extensions>
<speed>3.1</speed>
<temp>0.00</temp>
<bpm>0</bpm>
<rpm>0.00</rpm>
</extensions>
</trkpt>
<trkpt lat="30.579757690" lon="34.798530579">
<ele>559.3</ele>
<time>2013-11-23T10:09:19Z</time>
<speed>3.420000</speed>
<extensions>
<speed>3.4</speed>
<temp>0.00</temp>
<bpm>0</bpm>
<rpm>0.00</rpm>
</extensions>
</trkpt>
<trkpt lat="30.579595566" lon="34.799659729">
<ele>560.1</ele>
<time>2013-11-23T10:09:49Z</time>
<speed>4.020000</speed>
<extensions>
<speed>4.0</speed>
<temp>0.00</temp>
<bpm>0</bpm>
<rpm>0.00</rpm>
</extensions>
</trkpt>
<trkpt lat="30.581636429" lon="34.802467346">
<ele>553.4</ele>
<time>2013-11-23T10:11:24Z</time>
<speed>3.990000</speed>
<extensions>
<speed>4.0</speed>
<temp>0.00</temp>
<bpm>0</bpm>
<rpm>0.00</rpm>
</extensions>
</trkpt>
<trkpt lat="30.583513260" lon="34.803733826">
<ele>543.6</ele>
<time>2013-11-23T10:13:04Z</time>
<speed>3.180000</speed>
<extensions>
<speed>3.2</speed>
<temp>0.00</temp>
<bpm>0</bpm>
<rpm>0.00</rpm>
</extensions>
</trkpt>
<trkpt lat="30.584287643" lon="34.804470062">
<ele>545.2</ele>
<time>2013-11-23T10:13:34Z</time>
<speed>3.960000</speed>
<extensions>
<speed>4.0</speed>
<temp>0.00</temp>
<bpm>0</bpm>
<rpm>0.00</rpm>
</extensions>
</trkpt>
<trkpt lat="30.584735870" lon="34.805103302">
<ele>543.6</ele>
<time>2013-11-23T10:13:54Z</time>
<speed>4.300000</speed>
<extensions>
<speed>4.3</speed>
<temp>0.00</temp>
<bpm>0</bpm>
<rpm>0.00</rpm>
</extensions>
</trkpt>
<trkpt lat="30.584970474" lon="34.806083679">
<ele>535.0</ele>
<time>2013-11-23T10:14:29Z</time>
<speed>2.760000</speed>
<extensions>
<speed>2.8</speed>
<temp>0.00</temp>
<bpm>0</bpm>
<rpm>0.00</rpm>
</extensions>
</trkpt>
<trkpt lat="30.585979462" lon="34.806415558">
<ele>532.6</ele>
<time>2013-11-23T10:14:59Z</time>
<speed>2.630000</speed>
<extensions>
<speed>2.6</speed>
<temp>0.00</temp>
<bpm>0</bpm>
<rpm>0.00</rpm>
</extensions>
</trkpt>
<trkpt lat="30.586118698" lon="34.806919098">
<ele>536.4</ele>
<time>2013-11-23T10:15:19Z</time>
<speed>4.100000</speed>
<extensions>
<speed>4.1</speed>
<temp>0.00</temp>
<bpm>0</bpm>
<rpm>0.00</rpm>
</extensions>
</trkpt>
<trkpt lat="30.586462021" lon="34.807315826">
<ele>535.6</ele>
<time>2013-11-23T10:15:34Z</time>
<speed>2.760000</speed>
<extensions>
<speed>2.8</speed>
<temp>0.00</temp>
<bpm>0</bpm>
<rpm>0.00</rpm>
</extensions>
</trkpt>
<trkpt lat="30.586420059" lon="34.807949066">
<ele>541.6</ele>
<time>2013-11-23T10:16:54Z</time>
<speed>0.930000</speed>
<extensions>
<speed>0.9</speed>
<temp>0.00</temp>
<bpm>0</bpm>
<rpm>0.00</rpm>
</extensions>
</trkpt>
<trkpt lat="30.586769104" lon="34.808391571">
<ele>539.7</ele>
<time>2013-11-23T10:17:39Z</time>
<speed>2.470000</speed>
<extensions>
<speed>2.5</speed>
<temp>0.00</temp>
<bpm>0</bpm>
<rpm>0.00</rpm>
</extensions>
</trkpt>
<trkpt lat="30.587450027" lon="34.810951233">
<ele>531.5</ele>
<time>2013-11-23T10:18:39Z</time>
<speed>3.740000</speed>
<extensions>
<speed>3.7</speed>
<temp>0.00</temp>
<bpm>0</bpm>
<rpm>0.00</rpm>
</extensions>
</trkpt>
<trkpt lat="30.588212967" lon="34.812767029">
<ele>529.2</ele>
<time>2013-11-23T10:19:19Z</time>
<speed>7.050000</speed>
<extensions>
<speed>7.0</speed>
<temp>0.00</temp>
<bpm>0</bpm>
<rpm>0.00</rpm>
</extensions>
</trkpt>
<trkpt lat="30.588439941" lon="34.813858032">
<ele>527.4</ele>
<time>2013-11-23T10:19:44Z</time>
<speed>4.180000</speed>
<extensions>
<speed>4.2</speed>
<temp>0.00</temp>
<bpm>0</bpm>
<rpm>0.00</rpm>
</extensions>
</trkpt>
<trkpt lat="30.588619232" lon="34.816326141">
<ele>526.1</ele>
<time>2013-11-23T10:20:44Z</time>
<speed>5.950000</speed>
<extensions>
<speed>6.0</speed>
<temp>0.00</temp>
<bpm>0</bpm>
<rpm>0.00</rpm>
</extensions>
</trkpt>
<trkpt lat="30.588569641" lon="34.817661285">
<ele>525.1</ele>
<time>2013-11-23T10:21:04Z</time>
<speed>6.670000</speed>
<extensions>
<speed>6.7</speed>
<temp>0.00</temp>
<bpm>0</bpm>
<rpm>0.00</rpm>
</extensions>
</trkpt>
<trkpt lat="30.589296341" lon="34.819484711">
<ele>525.8</ele>
<time>2013-11-23T10:21:49Z</time>
<speed>5.430000</speed>
<extensions>
<speed>5.4</speed>
<temp>0.00</temp>
<bpm>0</bpm>
<rpm>0.00</rpm>
</extensions>
</trkpt>
<trkpt lat="30.589866638" lon="34.822776794">
<ele>521.8</ele>
<time>2013-11-23T10:22:59Z</time>
<speed>4.930000</speed>
<extensions>
<speed>4.9</speed>
<temp>0.00</temp>
<bpm>0</bpm>
<rpm>0.00</rpm>
</extensions>
</trkpt>
<trkpt lat="30.589996338" lon="34.824848175">
<ele>520.7</ele>
<time>2013-11-23T10:23:44Z</time>
<speed>4.440000</speed>
<extensions>
<speed>4.4</speed>
<temp>0.00</temp>
<bpm>0</bpm>
<rpm>0.00</rpm>
</extensions>
</trkpt>
<trkpt lat="30.589586258" lon="34.825698853">
<ele>523.2</ele>
<time>2013-11-23T10:24:14Z</time>
<speed>2.580000</speed>
<extensions>
<speed>2.6</speed>
<temp>0.00</temp>
<bpm>0</bpm>
<rpm>0.00</rpm>
</extensions>
</trkpt>
<trkpt lat="30.589708328" lon="34.826755524">
<ele>522.7</ele>
<time>2013-11-23T10:24:44Z</time>
<speed>4.100000</speed>
<extensions>
<speed>4.1</speed>
<temp>0.00</temp>
<bpm>0</bpm>
<rpm>0.00</rpm>
</extensions>
</trkpt>
<trkpt lat="30.589963913" lon="34.827880859">
<ele>521.7</ele>
<time>2013-11-23T10:25:09Z</time>
<speed>4.720000</speed>
<extensions>
<speed>4.7</speed>
<temp>0.00</temp>
<bpm>0</bpm>
<rpm>0.00</rpm>
</extensions>
</trkpt>
<trkpt lat="30.590579987" lon="34.828655243">
<ele>516.7</ele>
<time>2013-11-23T10:25:29Z</time>
<speed>5.390000</speed>
<extensions>
<speed>5.4</speed>
<temp>0.00</temp>
<bpm>0</bpm>
<rpm>0.00</rpm>
</extensions>
</trkpt>
<trkpt lat="30.590604782" lon="34.829692841">
<ele>517.7</ele>
<time>2013-11-23T10:25:54Z</time>
<speed>2.530000</speed>
<extensions>
<speed>2.5</speed>
<temp>0.00</temp>
<bpm>0</bpm>
<rpm>0.00</rpm>
</extensions>
</trkpt>
<trkpt lat="30.591302872" lon="34.830463409">
<ele>512.7</ele>
<time>2013-11-23T10:26:29Z</time>
<speed>3.870000</speed>
<extensions>
<speed>3.9</speed>
<temp>0.00</temp>
<bpm>0</bpm>
<rpm>0.00</rpm>
</extensions>
</trkpt>
<trkpt lat="30.591474533" lon="34.832340240">
<ele>511.0</ele>
<time>2013-11-23T10:28:14Z</time>
<speed>3.150000</speed>
<extensions>
<speed>3.2</speed>
<temp>0.00</temp>
<bpm>0</bpm>
<rpm>0.00</rpm>
</extensions>
</trkpt>
<trkpt lat="30.591772079" lon="34.833576202">
<ele>509.8</ele>
<time>2013-11-23T10:28:54Z</time>
<speed>2.220000</speed>
<extensions>
<speed>2.2</speed>
<temp>0.00</temp>
<bpm>0</bpm>
<rpm>0.00</rpm>
</extensions>
</trkpt>
<trkpt lat="30.591367722" lon="34.835372925">
<ele>517.0</ele>
<time>2013-11-23T10:31:09Z</time>
<speed>2.480000</speed>
<extensions>
<speed>2.5</speed>
<temp>0.00</temp>
<bpm>0</bpm>
<rpm>0.00</rpm>
</extensions>
</trkpt>
<trkpt lat="30.590837479" lon="34.836208344">
<ele>521.5</ele>
<time>2013-11-23T10:31:49Z</time>
<speed>2.680000</speed>
<extensions>
<speed>2.7</speed>
<temp>0.00</temp>
<bpm>0</bpm>
<rpm>0.00</rpm>
</extensions>
</trkpt>
<trkpt lat="30.590190887" lon="34.836818695">
<ele>524.5</ele>
<time>2013-11-23T10:32:24Z</time>
<speed>3.190000</speed>
<extensions>
<speed>3.2</speed>
<temp>0.00</temp>
<bpm>0</bpm>
<rpm>0.00</rpm>
</extensions>
</trkpt>
<trkpt lat="30.589876175" lon="34.837417603">
<ele>522.0</ele>
<time>2013-11-23T10:32:44Z</time>
<speed>3.320000</speed>
<extensions>
<speed>3.3</speed>
<temp>0.00</temp>
<bpm>0</bpm>
<rpm>0.00</rpm>
</extensions>
</trkpt>
<trkpt lat="30.589263916" lon="34.837734222">
<ele>523.4</ele>
<time>2013-11-23T10:32:59Z</time>
<speed>5.580000</speed>
<extensions>
<speed>5.6</speed>
<temp>0.00</temp>
<bpm>0</bpm>
<rpm>0.00</rpm>
</extensions>
</trkpt>
<trkpt lat="30.589113235" lon="34.838043213">
<ele>525.8</ele>
<time>2013-11-23T10:33:09Z</time>
<speed>2.110000</speed>
<extensions>
<speed>2.1</speed>
<temp>0.00</temp>
<bpm>0</bpm>
<rpm>0.00</rpm>
</extensions>
</trkpt>
<trkpt lat="30.588565826" lon="34.838382721">
<ele>530.8</ele>
<time>2013-11-23T10:33:39Z</time>
<speed>1.480000</speed>
<extensions>
<speed>1.5</speed>
<temp>0.00</temp>
<bpm>0</bpm>
<rpm>0.00</rpm>
</extensions>
</trkpt>
<trkpt lat="30.587677002" lon="34.840167999">
<ele>529.7</ele>
<time>2013-11-23T10:35:24Z</time>
<speed>3.970000</speed>
<extensions>
<speed>4.0</speed>
<temp>0.00</temp>
<bpm>0</bpm>
<rpm>0.00</rpm>
</extensions>
</trkpt>
<trkpt lat="30.587329865" lon="34.841388702">
<ele>529.0</ele>
<time>2013-11-23T10:35:54Z</time>
<speed>2.590000</speed>
<extensions>
<speed>2.6</speed>
<temp>0.00</temp>
<bpm>0</bpm>
<rpm>0.00</rpm>
</extensions>
</trkpt>
<trkpt lat="30.586635590" lon="34.842052460">
<ele>528.2</ele>
<time>2013-11-23T10:36:24Z</time>
<speed>3.110000</speed>
<extensions>
<speed>3.1</speed>
<temp>0.00</temp>
<bpm>0</bpm>
<rpm>0.00</rpm>
</extensions>
</trkpt>
<trkpt lat="30.586423874" lon="34.842681885">
<ele>526.8</ele>
<time>2013-11-23T10:36:44Z</time>
<speed>4.270000</speed>
<extensions>
<speed>4.3</speed>
<temp>0.00</temp>
<bpm>0</bpm>
<rpm>0.00</rpm>
</extensions>
</trkpt>
<trkpt lat="30.585695267" lon="34.843166351">
<ele>528.2</ele>
<time>2013-11-23T10:37:09Z</time>
<speed>3.520000</speed>
<extensions>
<speed>3.5</speed>
<temp>0.00</temp>
<bpm>0</bpm>
<rpm>0.00</rpm>
</extensions>
</trkpt>
<trkpt lat="30.584573746" lon="34.843315125">
<ele>532.2</ele>
<time>2013-11-23T10:37:49Z</time>
<speed>3.620000</speed>
<extensions>
<speed>3.6</speed>
<temp>0.00</temp>
<bpm>0</bpm>
<rpm>0.00</rpm>
</extensions>
</trkpt>
<trkpt lat="30.582897186" lon="34.843955994">
<ele>534.8</ele>
<time>2013-11-23T10:38:54Z</time>
<speed>4.390000</speed>
<extensions>
<speed>4.4</speed>
<temp>0.00</temp>
<bpm>0</bpm>
<rpm>0.00</rpm>
</extensions>
</trkpt>
<trkpt lat="30.580747604" lon="34.845615387">
<ele>539.2</ele>
<time>2013-11-23T10:41:24Z</time>
<speed>2.130000</speed>
<extensions>
<speed>2.1</speed>
<temp>0.00</temp>
<bpm>0</bpm>
<rpm>0.00</rpm>
</extensions>
</trkpt>
<trkpt lat="30.579750061" lon="34.845840454">
<ele>541.0</ele>
<time>2013-11-23T10:42:04Z</time>
<speed>3.110000</speed>
<extensions>
<speed>3.1</speed>
<temp>0.00</temp>
<bpm>0</bpm>
<rpm>0.00</rpm>
</extensions>
</trkpt>
<trkpt lat="30.577739716" lon="34.848163605">
<ele>548.1</ele>
<time>2013-11-23T10:44:19Z</time>
<speed>3.140000</speed>
<extensions>
<speed>3.1</speed>
<temp>0.00</temp>
<bpm>0</bpm>
<rpm>0.00</rpm>
</extensions>
</trkpt>
<trkpt lat="30.576814651" lon="34.850486755">
<ele>554.9</ele>
<time>2013-11-23T10:45:44Z</time>
<speed>2.740000</speed>
<extensions>
<speed>2.7</speed>
<temp>0.00</temp>
<bpm>0</bpm>
<rpm>0.00</rpm>
</extensions>
</trkpt>
<trkpt lat="30.576684952" lon="34.851482391">
<ele>556.9</ele>
<time>2013-11-23T10:46:24Z</time>
<speed>3.440000</speed>
<extensions>
<speed>3.4</speed>
<temp>0.00</temp>
<bpm>0</bpm>
<rpm>0.00</rpm>
</extensions>
</trkpt>
<trkpt lat="30.577215195" lon="34.851932526">
<ele>555.9</ele>
<time>2013-11-23T10:47:54Z</time>
<speed>1.150000</speed>
<extensions>
<speed>1.1</speed>
<temp>0.00</temp>
<bpm>0</bpm>
<rpm>0.00</rpm>
</extensions>
</trkpt>
<trkpt lat="30.577100754" lon="34.853778839">
<ele>561.1</ele>
<time>2013-11-23T10:49:09Z</time>
<speed>2.820000</speed>
<extensions>
<speed>2.8</speed>
<temp>0.00</temp>
<bpm>0</bpm>
<rpm>0.00</rpm>
</extensions>
</trkpt>
<trkpt lat="30.577888489" lon="34.855144501">
<ele>572.8</ele>
<time>2013-11-23T10:50:14Z</time>
<speed>4.430000</speed>
<extensions>
<speed>4.4</speed>
<temp>0.00</temp>
<bpm>0</bpm>
<rpm>0.00</rpm>
</extensions>
</trkpt>
<trkpt lat="30.578670502" lon="34.855316162">
<ele>577.1</ele>
<time>2013-11-23T10:51:24Z</time>
<speed>0.840000</speed>
<extensions>
<speed>0.8</speed>
<temp>0.00</temp>
<bpm>0</bpm>
<rpm>0.00</rpm>
</extensions>
</trkpt>
<trkpt lat="30.579708099" lon="34.855178833">
<ele>565.1</ele>
<time>2013-11-23T10:51:54Z</time>
<speed>4.650000</speed>
<extensions>
<speed>4.6</speed>
<temp>0.00</temp>
<bpm>0</bpm>
<rpm>0.00</rpm>
</extensions>
</trkpt>
<trkpt lat="30.580183029" lon="34.855499268">
<ele>562.2</ele>
<time>2013-11-23T10:52:14Z</time>
<speed>5.110000</speed>
<extensions>
<speed>5.1</speed>
<temp>0.00</temp>
<bpm>0</bpm>
<rpm>0.00</rpm>
</extensions>
</trkpt>
<trkpt lat="30.581041336" lon="34.855613708">
<ele>560.6</ele>
<time>2013-11-23T10:52:29Z</time>
<speed>5.120000</speed>
<extensions>
<speed>5.1</speed>
<temp>0.00</temp>
<bpm>0</bpm>
<rpm>0.00</rpm>
</extensions>
</trkpt>
<trkpt lat="30.581893921" lon="34.855442047">
<ele>556.5</ele>
<time>2013-11-23T10:52:44Z</time>
<speed>6.190000</speed>
<extensions>
<speed>6.2</speed>
<temp>0.00</temp>
<bpm>0</bpm>
<rpm>0.00</rpm>
</extensions>
</trkpt>
<trkpt lat="30.583408356" lon="34.856216431">
<ele>551.7</ele>
<time>2013-11-23T10:53:09Z</time>
<speed>8.210000</speed>
<extensions>
<speed>8.2</speed>
<temp>0.00</temp>
<bpm>0</bpm>
<rpm>0.00</rpm>
</extensions>
</trkpt>
<trkpt lat="30.585071564" lon="34.858825684">
<ele>544.3</ele>
<time>2013-11-23T10:53:49Z</time>
<speed>7.910000</speed>
<extensions>
<speed>7.9</speed>
<temp>0.00</temp>
<bpm>0</bpm>
<rpm>0.00</rpm>
</extensions>
</trkpt>
<trkpt lat="30.585508347" lon="34.860057831">
<ele>542.5</ele>
<time>2013-11-23T10:54:04Z</time>
<speed>8.020000</speed>
<extensions>
<speed>8.0</speed>
<temp>0.00</temp>
<bpm>0</bpm>
<rpm>0.00</rpm>
</extensions>
</trkpt>
<trkpt lat="30.586397171" lon="34.860595703">
<ele>539.9</ele>
<time>2013-11-23T10:54:19Z</time>
<speed>7.470000</speed>
<extensions>
<speed>7.5</speed>
<temp>0.00</temp>
<bpm>0</bpm>
<rpm>0.00</rpm>
</extensions>
</trkpt>
<trkpt lat="30.586784363" lon="34.861312866">
<ele>540.3</ele>
<time>2013-11-23T10:54:29Z</time>
<speed>8.300000</speed>
<extensions>
<speed>8.3</speed>
<temp>0.00</temp>
<bpm>0</bpm>
<rpm>0.00</rpm>
</extensions>
</trkpt>
<trkpt lat="30.587514877" lon="34.863121033">
<ele>542.8</ele>
<time>2013-11-23T10:55:09Z</time>
<speed>5.040000</speed>
<extensions>
<speed>5.0</speed>
<temp>0.00</temp>
<bpm>0</bpm>
<rpm>0.00</rpm>
</extensions>
</trkpt>
<trkpt lat="30.587732315" lon="34.864219666">
<ele>541.4</ele>
<time>2013-11-23T10:55:29Z</time>
<speed>5.290000</speed>
<extensions>
<speed>5.3</speed>
<temp>0.00</temp>
<bpm>0</bpm>
<rpm>0.00</rpm>
</extensions>
</trkpt>
<trkpt lat="30.587709427" lon="34.865131378">
<ele>542.5</ele>
<time>2013-11-23T10:55:49Z</time>
<speed>6.850000</speed>
<extensions>
<speed>6.8</speed>
<temp>0.00</temp>
<bpm>0</bpm>
<rpm>0.00</rpm>
</extensions>
</trkpt>
<trkpt lat="30.587951660" lon="34.865505219">
<ele>541.6</ele>
<time>2013-11-23T10:56:04Z</time>
<speed>0.030000</speed>
<extensions>
<speed>0.0</speed>
<temp>0.00</temp>
<bpm>0</bpm>
<rpm>0.00</rpm>
</extensions>
</trkpt>
<trkpt lat="30.588920593" lon="34.866291046">
<ele>528.6</ele>
<time>2013-11-23T10:56:29Z</time>
<speed>6.880000</speed>
<extensions>
<speed>6.9</speed>
<temp>0.00</temp>
<bpm>0</bpm>
<rpm>0.00</rpm>
</extensions>
</trkpt>
<trkpt lat="30.589565277" lon="34.867107391">
<ele>526.0</ele>
<time>2013-11-23T10:56:59Z</time>
<speed>2.730000</speed>
<extensions>
<speed>2.7</speed>
<temp>0.00</temp>
<bpm>0</bpm>
<rpm>0.00</rpm>
</extensions>
</trkpt>
<trkpt lat="30.589830399" lon="34.867694855">
<ele>523.6</ele>
<time>2013-11-23T10:57:09Z</time>
<speed>7.450000</speed>
<extensions>
<speed>7.4</speed>
<temp>0.00</temp>
<bpm>0</bpm>
<rpm>0.00</rpm>
</extensions>
</trkpt>
<trkpt lat="30.590589523" lon="34.868560791">
<ele>519.0</ele>
<time>2013-11-23T10:57:29Z</time>
<speed>6.880000</speed>
<extensions>
<speed>6.9</speed>
<temp>0.00</temp>
<bpm>0</bpm>
<rpm>0.00</rpm>
</extensions>
</trkpt>
<trkpt lat="30.591388702" lon="34.870586395">
<ele>515.5</ele>
<time>2013-11-23T10:57:59Z</time>
<speed>7.020000</speed>
<extensions>
<speed>7.0</speed>
<temp>0.00</temp>
<bpm>0</bpm>
<rpm>0.00</rpm>
</extensions>
</trkpt>
<trkpt lat="30.593076706" lon="34.871932983">
<ele>511.4</ele>
<time>2013-11-23T10:58:29Z</time>
<speed>7.360000</speed>
<extensions>
<speed>7.4</speed>
<temp>0.00</temp>
<bpm>0</bpm>
<rpm>0.00</rpm>
</extensions>
</trkpt>
<trkpt lat="30.593296051" lon="34.872592926">
<ele>508.1</ele>
<time>2013-11-23T10:58:44Z</time>
<speed>0.450000</speed>
<extensions>
<speed>0.5</speed>
<temp>0.00</temp>
<bpm>0</bpm>
<rpm>0.00</rpm>
</extensions>
</trkpt>
<trkpt lat="30.593788147" lon="34.872180939">
<ele>507.4</ele>
<time>2013-11-23T11:22:34Z</time>
<speed>3.900000</speed>
<extensions>
<speed>3.9</speed>
<temp>0.00</temp>
<bpm>0</bpm>
<rpm>0.00</rpm>
</extensions>
</trkpt>
<trkpt lat="30.594747543" lon="34.870758057">
<ele>511.0</ele>
<time>2013-11-23T11:23:39Z</time>
<speed>3.090000</speed>
<extensions>
<speed>3.1</speed>
<temp>0.00</temp>
<bpm>0</bpm>
<rpm>0.00</rpm>
</extensions>
</trkpt>
<trkpt lat="30.596122742" lon="34.869499207">
<ele>517.3</ele>
<time>2013-11-23T11:24:34Z</time>
<speed>3.260000</speed>
<extensions>
<speed>3.3</speed>
<temp>0.00</temp>
<bpm>0</bpm>
<rpm>0.00</rpm>
</extensions>
</trkpt>
<trkpt lat="30.597660065" lon="34.867588043">
<ele>514.0</ele>
<time>2013-11-23T11:25:44Z</time>
<speed>4.460000</speed>
<extensions>
<speed>4.5</speed>
<temp>0.00</temp>
<bpm>0</bpm>
<rpm>0.00</rpm>
</extensions>
</trkpt>
<trkpt lat="30.598461151" lon="34.867374420">
<ele>512.1</ele>
<time>2013-11-23T11:26:04Z</time>
<speed>4.800000</speed>
<extensions>
<speed>4.8</speed>
<temp>0.00</temp>
<bpm>0</bpm>
<rpm>0.00</rpm>
</extensions>
</trkpt>
<trkpt lat="30.598571777" lon="34.867183685">
<ele>511.1</ele>
<time>2013-11-23T11:26:09Z</time>
<speed>4.550000</speed>
<extensions>
<speed>4.5</speed>
<temp>0.00</temp>
<bpm>0</bpm>
<rpm>0.00</rpm>
</extensions>
</trkpt>
<trkpt lat="30.598558426" lon="34.866157532">
<ele>513.7</ele>
<time>2013-11-23T11:26:39Z</time>
<speed>3.330000</speed>
<extensions>
<speed>3.3</speed>
<temp>0.00</temp>
<bpm>0</bpm>
<rpm>0.00</rpm>
</extensions>
</trkpt>
<trkpt lat="30.599040985" lon="34.865219116">
<ele>517.1</ele>
<time>2013-11-23T11:27:24Z</time>
<speed>1.570000</speed>
<extensions>
<speed>1.6</speed>
<temp>0.00</temp>
<bpm>0</bpm>
<rpm>0.00</rpm>
</extensions>
</trkpt>
<trkpt lat="30.599309921" lon="34.865280151">
<ele>517.0</ele>
<time>2013-11-23T11:27:54Z</time>
<speed>2.920000</speed>
<extensions>
<speed>2.9</speed>
<temp>0.00</temp>
<bpm>0</bpm>
<rpm>0.00</rpm>
</extensions>
</trkpt>
<trkpt lat="30.599622726" lon="34.865051270">
<ele>516.7</ele>
<time>2013-11-23T11:28:04Z</time>
<speed>6.260000</speed>
<extensions>
<speed>6.3</speed>
<temp>0.00</temp>
<bpm>0</bpm>
<rpm>0.00</rpm>
</extensions>
</trkpt>
<trkpt lat="30.599905014" lon="34.864669800">
<ele>516.1</ele>
<time>2013-11-23T11:28:19Z</time>
<speed>2.360000</speed>
<extensions>
<speed>2.4</speed>
<temp>0.00</temp>
<bpm>0</bpm>
<rpm>0.00</rpm>
</extensions>
</trkpt>
<trkpt lat="30.599969864" lon="34.864292145">
<ele>513.5</ele>
<time>2013-11-23T11:28:29Z</time>
<speed>3.870000</speed>
<extensions>
<speed>3.9</speed>
<temp>0.00</temp>
<bpm>0</bpm>
<rpm>0.00</rpm>
</extensions>
</trkpt>
<trkpt lat="30.600255966" lon="34.864017487">
<ele>512.3</ele>
<time>2013-11-23T11:28:44Z</time>
<speed>2.030000</speed>
<extensions>
<speed>2.0</speed>
<temp>0.00</temp>
<bpm>0</bpm>
<rpm>0.00</rpm>
</extensions>
</trkpt>
<trkpt lat="30.600997925" lon="34.863765717">
<ele>501.1</ele>
<time>2013-11-23T11:28:59Z</time>
<speed>8.400000</speed>
<extensions>
<speed>8.4</speed>
<temp>0.00</temp>
<bpm>0</bpm>
<rpm>0.00</rpm>
</extensions>
</trkpt>
<trkpt lat="30.601814270" lon="34.863170624">
<ele>498.5</ele>
<time>2013-11-23T11:29:14Z</time>
<speed>6.110000</speed>
<extensions>
<speed>6.1</speed>
<temp>0.00</temp>
<bpm>0</bpm>
<rpm>0.00</rpm>
</extensions>
</trkpt>
<trkpt lat="30.602563858" lon="34.861904144">
<ele>500.5</ele>
<time>2013-11-23T11:30:19Z</time>
<speed>1.700000</speed>
<extensions>
<speed>1.7</speed>
<temp>0.00</temp>
<bpm>0</bpm>
<rpm>0.00</rpm>
</extensions>
</trkpt>
<trkpt lat="30.604446411" lon="34.860118866">
<ele>500.5</ele>
<time>2013-11-23T11:31:49Z</time>
<speed>4.370000</speed>
<extensions>
<speed>4.4</speed>
<temp>0.00</temp>
<bpm>0</bpm>
<rpm>0.00</rpm>
</extensions>
</trkpt>
<trkpt lat="30.604490280" lon="34.859573364">
<ele>499.3</ele>
<time>2013-11-23T11:32:04Z</time>
<speed>1.860000</speed>
<extensions>
<speed>1.9</speed>
<temp>0.00</temp>
<bpm>0</bpm>
<rpm>0.00</rpm>
</extensions>
</trkpt>
<trkpt lat="30.605798721" lon="34.858963013">
<ele>499.6</ele>
<time>2013-11-23T11:33:24Z</time>
<speed>2.360000</speed>
<extensions>
<speed>2.4</speed>
<temp>0.00</temp>
<bpm>0</bpm>
<rpm>0.00</rpm>
</extensions>
</trkpt>
<trkpt lat="30.606781006" lon="34.857490540">
<ele>490.7</ele>
<time>2013-11-23T11:33:54Z</time>
<speed>4.960000</speed>
<extensions>
<speed>5.0</speed>
<temp>0.00</temp>
<bpm>0</bpm>
<rpm>0.00</rpm>
</extensions>
</trkpt>
<trkpt lat="30.607313156" lon="34.857093811">
<ele>490.6</ele>
<time>2013-11-23T11:34:19Z</time>
<speed>2.120000</speed>
<extensions>
<speed>2.1</speed>
<temp>0.00</temp>
<bpm>0</bpm>
<rpm>0.00</rpm>
</extensions>
</trkpt>
<trkpt lat="30.609502792" lon="34.854557037">
<ele>485.2</ele>
<time>2013-11-23T11:35:54Z</time>
<speed>5.230000</speed>
<extensions>
<speed>5.2</speed>
<temp>0.00</temp>
<bpm>0</bpm>
<rpm>0.00</rpm>
</extensions>
</trkpt>
<trkpt lat="30.610414505" lon="34.854022980">
<ele>484.8</ele>
<time>2013-11-23T11:36:19Z</time>
<speed>4.570000</speed>
<extensions>
<speed>4.6</speed>
<temp>0.00</temp>
<bpm>0</bpm>
<rpm>0.00</rpm>
</extensions>
</trkpt>
<trkpt lat="30.610813141" lon="34.853336334">
<ele>486.1</ele>
<time>2013-11-23T11:36:39Z</time>
<speed>4.880000</speed>
<extensions>
<speed>4.9</speed>
<temp>0.00</temp>
<bpm>0</bpm>
<rpm>0.00</rpm>
</extensions>
</trkpt>
<trkpt lat="30.610996246" lon="34.853271484">
<ele>484.8</ele>
<time>2013-11-23T11:36:44Z</time>
<speed>3.930000</speed>
<extensions>
<speed>3.9</speed>
<temp>0.00</temp>
<bpm>0</bpm>
<rpm>0.00</rpm>
</extensions>
</trkpt>
<trkpt lat="30.611206055" lon="34.853454590">
<ele>483.2</ele>
<time>2013-11-23T11:36:54Z</time>
<speed>1.560000</speed>
<extensions>
<speed>1.6</speed>
<temp>0.00</temp>
<bpm>0</bpm>
<rpm>0.00</rpm>
</extensions>
</trkpt>
<trkpt lat="30.611017227" lon="34.854572296">
<ele>482.6</ele>
<time>2013-11-23T11:38:39Z</time>
<speed>2.280000</speed>
<extensions>
<speed>2.3</speed>
<temp>0.00</temp>
<bpm>0</bpm>
<rpm>0.00</rpm>
</extensions>
</trkpt>
<trkpt lat="30.611028671" lon="34.856918335">
<ele>487.8</ele>
<time>2013-11-23T11:40:19Z</time>
<speed>2.530000</speed>
<extensions>
<speed>2.5</speed>
<temp>0.00</temp>
<bpm>0</bpm>
<rpm>0.00</rpm>
</extensions>
</trkpt>
<trkpt lat="30.611207962" lon="34.857173920">
<ele>487.3</ele>
<time>2013-11-23T11:40:34Z</time>
<speed>2.430000</speed>
<extensions>
<speed>2.4</speed>
<temp>0.00</temp>
<bpm>0</bpm>
<rpm>0.00</rpm>
</extensions>
</trkpt>
<trkpt lat="30.612197876" lon="34.857704163">
<ele>482.0</ele>
<time>2013-11-23T11:41:39Z</time>
<speed>2.410000</speed>
<extensions>
<speed>2.4</speed>
<temp>0.00</temp>
<bpm>0</bpm>
<rpm>0.00</rpm>
</extensions>
</trkpt>
<trkpt lat="30.612640381" lon="34.857757568">
<ele>479.4</ele>
<time>2013-11-23T11:42:09Z</time>
<speed>2.080000</speed>
<extensions>
<speed>2.1</speed>
<temp>0.00</temp>
<bpm>0</bpm>
<rpm>0.00</rpm>
</extensions>
</trkpt>
<trkpt lat="30.612730026" lon="34.856609344">
<ele>483.1</ele>
<time>2013-11-23T11:42:54Z</time>
<speed>2.540000</speed>
<extensions>
<speed>2.5</speed>
<temp>0.00</temp>
<bpm>0</bpm>
<rpm>0.00</rpm>
</extensions>
</trkpt>
<trkpt lat="30.613142014" lon="34.855735779">
<ele>484.8</ele>
<time>2013-11-23T11:43:34Z</time>
<speed>1.380000</speed>
<extensions>
<speed>1.4</speed>
<temp>0.00</temp>
<bpm>0</bpm>
<rpm>0.00</rpm>
</extensions>
</trkpt>
<trkpt lat="30.613708496" lon="34.855182648">
<ele>491.6</ele>
<time>2013-11-23T11:49:49Z</time>
<speed>0.410000</speed>
<extensions>
<speed>0.4</speed>
<temp>0.00</temp>
<bpm>0</bpm>
<rpm>0.00</rpm>
</extensions>
</trkpt>
<trkpt lat="30.614038467" lon="34.854545593">
<ele>494.3</ele>
<time>2013-11-23T11:51:04Z</time>
<speed>2.470000</speed>
<extensions>
<speed>2.5</speed>
<temp>0.00</temp>
<bpm>0</bpm>
<rpm>0.00</rpm>
</extensions>
</trkpt>
<trkpt lat="30.615135193" lon="34.850757599">
<ele>501.3</ele>
<time>2013-11-23T11:53:04Z</time>
<speed>3.230000</speed>
<extensions>
<speed>3.2</speed>
<temp>0.00</temp>
<bpm>0</bpm>
<rpm>0.00</rpm>
</extensions>
</trkpt>
<trkpt lat="30.616985321" lon="34.848308563">
<ele>506.0</ele>
<time>2013-11-23T11:54:39Z</time>
<speed>2.420000</speed>
<extensions>
<speed>2.4</speed>
<temp>0.00</temp>
<bpm>0</bpm>
<rpm>0.00</rpm>
</extensions>
</trkpt>
<trkpt lat="30.616930008" lon="34.847217560">
<ele>504.4</ele>
<time>2013-11-23T11:55:29Z</time>
<speed>1.650000</speed>
<extensions>
<speed>1.7</speed>
<temp>0.00</temp>
<bpm>0</bpm>
<rpm>0.00</rpm>
</extensions>
</trkpt>
<trkpt lat="30.617109299" lon="34.846786499">
<ele>499.9</ele>
<time>2013-11-23T11:55:59Z</time>
<speed>3.560000</speed>
<extensions>
<speed>3.6</speed>
<temp>0.00</temp>
<bpm>0</bpm>
<rpm>0.00</rpm>
</extensions>
</trkpt>
<trkpt lat="30.617208481" lon="34.846843719">
<ele>499.5</ele>
<time>2013-11-23T11:56:04Z</time>
<speed>2.160000</speed>
<extensions>
<speed>2.2</speed>
<temp>0.00</temp>
<bpm>0</bpm>
<rpm>0.00</rpm>
</extensions>
</trkpt>
<trkpt lat="30.617004395" lon="34.846748352">
<ele>499.7</ele>
<time>2013-11-23T12:07:14Z</time>
<speed>1.460000</speed>
<extensions>
<speed>1.5</speed>
<temp>0.00</temp>
<bpm>0</bpm>
<rpm>0.00</rpm>
</extensions>
</trkpt>
<trkpt lat="30.616844177" lon="34.847743988">
<ele>506.1</ele>
<time>2013-11-23T12:08:14Z</time>
<speed>2.360000</speed>
<extensions>
<speed>2.4</speed>
<temp>0.00</temp>
<bpm>0</bpm>
<rpm>0.00</rpm>
</extensions>
</trkpt>
<trkpt lat="30.617128372" lon="34.848056793">
<ele>505.8</ele>
<time>2013-11-23T12:08:34Z</time>
<speed>2.490000</speed>
<extensions>
<speed>2.5</speed>
<temp>0.00</temp>
<bpm>0</bpm>
<rpm>0.00</rpm>
</extensions>
</trkpt>
<trkpt lat="30.620559692" lon="34.844142914">
<ele>514.3</ele>
<time>2013-11-23T12:11:29Z</time>
<speed>3.140000</speed>
<extensions>
<speed>3.1</speed>
<temp>0.00</temp>
<bpm>0</bpm>
<rpm>0.00</rpm>
</extensions>
</trkpt>
<trkpt lat="30.623516083" lon="34.841453552">
<ele>518.6</ele>
<time>2013-11-23T12:13:34Z</time>
<speed>2.380000</speed>
<extensions>
<speed>2.4</speed>
<temp>0.00</temp>
<bpm>0</bpm>
<rpm>0.00</rpm>
</extensions>
</trkpt>
<trkpt lat="30.624065399" lon="34.840637207">
<ele>518.3</ele>
<time>2013-11-23T12:14:19Z</time>
<speed>1.780000</speed>
<extensions>
<speed>1.8</speed>
<temp>0.00</temp>
<bpm>0</bpm>
<rpm>0.00</rpm>
</extensions>
</trkpt>
<trkpt lat="30.624357224" lon="34.838718414">
<ele>521.2</ele>
<time>2013-11-23T12:15:24Z</time>
<speed>1.890000</speed>
<extensions>
<speed>1.9</speed>
<temp>0.00</temp>
<bpm>0</bpm>
<rpm>0.00</rpm>
</extensions>
</trkpt>
<trkpt lat="30.625133514" lon="34.825939178">
<ele>574.5</ele>
<time>2013-11-23T12:23:49Z</time>
<speed>1.150000</speed>
<extensions>
<speed>1.1</speed>
<temp>0.00</temp>
<bpm>0</bpm>
<rpm>0.00</rpm>
</extensions>
</trkpt>
<trkpt lat="30.625070572" lon="34.824771881">
<ele>581.3</ele>
<time>2013-11-23T12:24:54Z</time>
<speed>2.000000</speed>
<extensions>
<speed>2.0</speed>
<temp>0.00</temp>
<bpm>0</bpm>
<rpm>0.00</rpm>
</extensions>
</trkpt>
<trkpt lat="30.624647141" lon="34.823406219">
<ele>589.3</ele>
<time>2013-11-23T12:26:09Z</time>
<speed>2.230000</speed>
<extensions>
<speed>2.2</speed>
<temp>0.00</temp>
<bpm>0</bpm>
<rpm>0.00</rpm>
</extensions>
</trkpt>
<trkpt lat="30.622467041" lon="34.820098877">
<ele>615.7</ele>
<time>2013-11-23T12:28:54Z</time>
<speed>2.680000</speed>
<extensions>
<speed>2.7</speed>
<temp>0.00</temp>
<bpm>0</bpm>
<rpm>0.00</rpm>
</extensions>
</trkpt>
<trkpt lat="30.621667862" lon="34.819454193">
<ele>620.6</ele>
<time>2013-11-23T12:29:39Z</time>
<speed>2.490000</speed>
<extensions>
<speed>2.5</speed>
<temp>0.00</temp>
<bpm>0</bpm>
<rpm>0.00</rpm>
</extensions>
</trkpt>
<trkpt lat="30.620565414" lon="34.819038391">
<ele>620.9</ele>
<time>2013-11-23T12:30:34Z</time>
<speed>3.050000</speed>
<extensions>
<speed>3.0</speed>
<temp>0.00</temp>
<bpm>0</bpm>
<rpm>0.00</rpm>
</extensions>
</trkpt>
<trkpt lat="30.620389938" lon="34.818756104">
<ele>630.7</ele>
<time>2013-11-23T12:30:49Z</time>
<speed>2.180000</speed>
<extensions>
<speed>2.2</speed>
<temp>0.00</temp>
<bpm>0</bpm>
<rpm>0.00</rpm>
</extensions>
</trkpt>
<trkpt lat="30.620542526" lon="34.818428040">
<ele>633.0</ele>
<time>2013-11-23T12:31:04Z</time>
<speed>2.690000</speed>
<extensions>
<speed>2.7</speed>
<temp>0.00</temp>
<bpm>0</bpm>
<rpm>0.00</rpm>
</extensions>
</trkpt>
<trkpt lat="30.620782852" lon="34.818393707">
<ele>636.2</ele>
<time>2013-11-23T12:31:14Z</time>
<speed>2.750000</speed>
<extensions>
<speed>2.7</speed>
<temp>0.00</temp>
<bpm>0</bpm>
<rpm>0.00</rpm>
</extensions>
</trkpt>
<trkpt lat="30.622888565" lon="34.818988800">
<ele>642.8</ele>
<time>2013-11-23T12:34:59Z</time>
<speed>1.490000</speed>
<extensions>
<speed>1.5</speed>
<temp>0.00</temp>
<bpm>0</bpm>
<rpm>0.00</rpm>
</extensions>
</trkpt>
<trkpt lat="30.623193741" lon="34.818874359">
<ele>652.1</ele>
<time>2013-11-23T12:35:24Z</time>
<speed>1.560000</speed>
<extensions>
<speed>1.6</speed>
<temp>0.00</temp>
<bpm>0</bpm>
<rpm>0.00</rpm>
</extensions>
</trkpt>
<trkpt lat="30.623100281" lon="34.818447113">
<ele>660.4</ele>
<time>2013-11-23T12:35:59Z</time>
<speed>1.550000</speed>
<extensions>
<speed>1.5</speed>
<temp>0.00</temp>
<bpm>0</bpm>
<rpm>0.00</rpm>
</extensions>
</trkpt>
<trkpt lat="30.621370316" lon="34.817710876">
<ele>662.9</ele>
<time>2013-11-23T12:37:59Z</time>
<speed>2.240000</speed>
<extensions>
<speed>2.2</speed>
<temp>0.00</temp>
<bpm>0</bpm>
<rpm>0.00</rpm>
</extensions>
</trkpt>
<trkpt lat="30.621358871" lon="34.817455292">
<ele>671.9</ele>
<time>2013-11-23T12:38:14Z</time>
<speed>2.530000</speed>
<extensions>
<speed>2.5</speed>
<temp>0.00</temp>
<bpm>0</bpm>
<rpm>0.00</rpm>
</extensions>
</trkpt>
<trkpt lat="30.623397827" lon="34.818138123">
<ele>679.2</ele>
<time>2013-11-23T12:45:09Z</time>
<speed>3.290000</speed>
<extensions>
<speed>3.3</speed>
<temp>0.00</temp>
<bpm>0</bpm>
<rpm>0.00</rpm>
</extensions>
</trkpt>
<trkpt lat="30.623579025" lon="34.818061829">
<ele>685.4</ele>
<time>2013-11-23T12:45:19Z</time>
<speed>2.170000</speed>
<extensions>
<speed>2.2</speed>
<temp>0.00</temp>
<bpm>0</bpm>
<rpm>0.00</rpm>
</extensions>
</trkpt>
<trkpt lat="30.623588562" lon="34.817832947">
<ele>696.8</ele>
<time>2013-11-23T12:45:29Z</time>
<speed>2.100000</speed>
<extensions>
<speed>2.1</speed>
<temp>0.00</temp>
<bpm>0</bpm>
<rpm>0.00</rpm>
</extensions>
</trkpt>
<trkpt lat="30.622097015" lon="34.817028046">
<ele>707.4</ele>
<time>2013-11-23T12:47:14Z</time>
<speed>1.540000</speed>
<extensions>
<speed>1.5</speed>
<temp>0.00</temp>
<bpm>0</bpm>
<rpm>0.00</rpm>
</extensions>
</trkpt>
<trkpt lat="30.621105194" lon="34.815719604">
<ele>713.0</ele>
<time>2013-11-23T12:48:39Z</time>
<speed>2.140000</speed>
<extensions>
<speed>2.1</speed>
<temp>0.00</temp>
<bpm>0</bpm>
<rpm>0.00</rpm>
</extensions>
</trkpt>
<trkpt lat="30.619741440" lon="34.814807892">
<ele>723.4</ele>
<time>2013-11-23T12:49:49Z</time>
<speed>2.970000</speed>
<extensions>
<speed>3.0</speed>
<temp>0.00</temp>
<bpm>0</bpm>
<rpm>0.00</rpm>
</extensions>
</trkpt>
<trkpt lat="30.618270874" lon="34.811500549">
<ele>743.8</ele>
<time>2013-11-23T12:54:24Z</time>
<speed>1.430000</speed>
<extensions>
<speed>1.4</speed>
<temp>0.00</temp>
<bpm>0</bpm>
<rpm>0.00</rpm>
</extensions>
</trkpt>
<trkpt lat="30.616355896" lon="34.809253693">
<ele>765.5</ele>
<time>2013-11-23T12:57:49Z</time>
<speed>0.740000</speed>
<extensions>
<speed>0.7</speed>
<temp>0.00</temp>
<bpm>0</bpm>
<rpm>0.00</rpm>
</extensions>
</trkpt>
<trkpt lat="30.616485596" lon="34.809211731">
<ele>771.6</ele>
<time>2013-11-23T12:59:44Z</time>
<speed>0.010000</speed>
<extensions>
<speed>0.0</speed>
<temp>0.00</temp>
<bpm>0</bpm>
<rpm>0.00</rpm>
</extensions>
</trkpt>
<trkpt lat="30.615280151" lon="34.809226990">
<ele>772.3</ele>
<time>2013-11-23T13:06:24Z</time>
<speed>1.980000</speed>
<extensions>
<speed>2.0</speed>
<temp>0.00</temp>
<bpm>0</bpm>
<rpm>0.00</rpm>
</extensions>
</trkpt>
<trkpt lat="30.612598419" lon="34.808883667">
<ele>792.1</ele>
<time>2013-11-23T13:10:09Z</time>
<speed>1.860000</speed>
<extensions>
<speed>1.9</speed>
<temp>0.00</temp>
<bpm>0</bpm>
<rpm>0.00</rpm>
</extensions>
</trkpt>
<trkpt lat="30.609991074" lon="34.808124542">
<ele>822.1</ele>
<time>2013-11-23T13:13:44Z</time>
<speed>1.360000</speed>
<extensions>
<speed>1.4</speed>
<temp>0.00</temp>
<bpm>0</bpm>
<rpm>0.00</rpm>
</extensions>
</trkpt>
<trkpt lat="30.609743118" lon="34.807769775">
<ele>828.3</ele>
<time>2013-11-23T13:14:14Z</time>
<speed>0.970000</speed>
<extensions>
<speed>1.0</speed>
<temp>0.00</temp>
<bpm>0</bpm>
<rpm>0.00</rpm>
</extensions>
</trkpt>
<trkpt lat="30.609792709" lon="34.807106018">
<ele>842.9</ele>
<time>2013-11-23T13:14:54Z</time>
<speed>1.330000</speed>
<extensions>
<speed>1.3</speed>
<temp>0.00</temp>
<bpm>0</bpm>
<rpm>0.00</rpm>
</extensions>
</trkpt>
<trkpt lat="30.611028671" lon="34.805500031">
<ele>840.2</ele>
<time>2013-11-23T13:16:59Z</time>
<speed>1.860000</speed>
<extensions>
<speed>1.9</speed>
<temp>0.00</temp>
<bpm>0</bpm>
<rpm>0.00</rpm>
</extensions>
</trkpt>
<trkpt lat="30.610893250" lon="34.804988861">
<ele>843.0</ele>
<time>2013-11-23T13:17:24Z</time>
<speed>2.210000</speed>
<extensions>
<speed>2.2</speed>
<temp>0.00</temp>
<bpm>0</bpm>
<rpm>0.00</rpm>
</extensions>
</trkpt>
<trkpt lat="30.609298706" lon="34.806209564">
<ele>855.2</ele>
<time>2013-11-23T13:19:29Z</time>
<speed>1.980000</speed>
<extensions>
<speed>2.0</speed>
<temp>0.00</temp>
<bpm>0</bpm>
<rpm>0.00</rpm>
</extensions>
</trkpt>
<trkpt lat="30.608337402" lon="34.805896759">
<ele>858.6</ele>
<time>2013-11-23T13:22:39Z</time>
<extensions>
<speed>0.0</speed>
<temp>0.00</temp>
<bpm>0</bpm>
<rpm>0.00</rpm>
</extensions>
</trkpt>
<trkpt lat="30.608304977" lon="34.806510925">
<ele>855.5</ele>
<time>2013-11-23T13:27:39Z</time>
<speed>0.140000</speed>
<extensions>
<speed>0.1</speed>
<temp>0.00</temp>
<bpm>0</bpm>
<rpm>0.00</rpm>
</extensions>
</trkpt>
<trkpt lat="30.608366013" lon="34.806171417">
<ele>860.7</ele>
<time>2013-11-23T13:30:54Z</time>
<speed>0.050000</speed>
<extensions>
<speed>0.1</speed>
<temp>0.00</temp>
<bpm>0</bpm>
<rpm>0.00</rpm>
</extensions>
</trkpt>
<trkpt lat="30.608324051" lon="34.806453705">
<ele>857.5</ele>
<time>2013-11-23T13:49:04Z</time>
<speed>0.020000</speed>
<extensions>
<speed>0.0</speed>
<temp>0.00</temp>
<bpm>0</bpm>
<rpm>0.00</rpm>
</extensions>
</trkpt>
<trkpt lat="30.608476639" lon="34.806381226">
<ele>861.2</ele>
<time>2013-11-23T13:52:49Z</time>
<speed>3.170000</speed>
<extensions>
<speed>3.2</speed>
<temp>0.00</temp>
<bpm>0</bpm>
<rpm>0.00</rpm>
</extensions>
</trkpt>
<trkpt lat="30.608486176" lon="34.805908203">
<ele>858.4</ele>
<time>2013-11-23T13:53:09Z</time>
<speed>2.410000</speed>
<extensions>
<speed>2.4</speed>
<temp>0.00</temp>
<bpm>0</bpm>
<rpm>0.00</rpm>
</extensions>
</trkpt>
<trkpt lat="30.608882904" lon="34.805797577">
<ele>855.6</ele>
<time>2013-11-23T13:53:24Z</time>
<speed>4.230000</speed>
<extensions>
<speed>4.2</speed>
<temp>0.00</temp>
<bpm>0</bpm>
<rpm>0.00</rpm>
</extensions>
</trkpt>
<trkpt lat="30.609350204" lon="34.806064606">
<ele>854.1</ele>
<time>2013-11-23T13:53:39Z</time>
<speed>3.770000</speed>
<extensions>
<speed>3.8</speed>
<temp>0.00</temp>
<bpm>0</bpm>
<rpm>0.00</rpm>
</extensions>
</trkpt>
<trkpt lat="30.609561920" lon="34.806026459">
<ele>852.3</ele>
<time>2013-11-23T13:53:44Z</time>
<speed>5.740000</speed>
<extensions>
<speed>5.7</speed>
<temp>0.00</temp>
<bpm>0</bpm>
<rpm>0.00</rpm>
</extensions>
</trkpt>
<trkpt lat="30.610889435" lon="34.804878235">
<ele>843.3</ele>
<time>2013-11-23T13:54:09Z</time>
<speed>3.170000</speed>
<extensions>
<speed>3.2</speed>
<temp>0.00</temp>
<bpm>0</bpm>
<rpm>0.00</rpm>
</extensions>
</trkpt>
<trkpt lat="30.611190796" lon="34.804954529">
<ele>842.8</ele>
<time>2013-11-23T13:54:19Z</time>
<speed>4.150000</speed>
<extensions>
<speed>4.1</speed>
<temp>0.00</temp>
<bpm>0</bpm>
<rpm>0.00</rpm>
</extensions>
</trkpt>
<trkpt lat="30.612579346" lon="34.804298401">
<ele>838.4</ele>
<time>2013-11-23T13:54:54Z</time>
<speed>5.810000</speed>
<extensions>
<speed>5.8</speed>
<temp>0.00</temp>
<bpm>0</bpm>
<rpm>0.00</rpm>
</extensions>
</trkpt>
<trkpt lat="30.613113403" lon="34.804416656">
<ele>835.0</ele>
<time>2013-11-23T13:55:04Z</time>
<speed>6.040000</speed>
<extensions>
<speed>6.0</speed>
<temp>0.00</temp>
<bpm>0</bpm>
<rpm>0.00</rpm>
</extensions>
</trkpt>
<trkpt lat="30.613286972" lon="34.804206848">
<ele>834.2</ele>
<time>2013-11-23T13:55:09Z</time>
<speed>5.580000</speed>
<extensions>
<speed>5.6</speed>
<temp>0.00</temp>
<bpm>0</bpm>
<rpm>0.00</rpm>
</extensions>
</trkpt>
<trkpt lat="30.613140106" lon="34.803756714">
<ele>836.0</ele>
<time>2013-11-23T13:55:24Z</time>
<speed>1.240000</speed>
<extensions>
<speed>1.2</speed>
<temp>0.00</temp>
<bpm>0</bpm>
<rpm>0.00</rpm>
</extensions>
</trkpt>
<trkpt lat="30.613584518" lon="34.803855896">
<ele>833.1</ele>
<time>2013-11-23T13:55:39Z</time>
<speed>5.200000</speed>
<extensions>
<speed>5.2</speed>
<temp>0.00</temp>
<bpm>0</bpm>
<rpm>0.00</rpm>
</extensions>
</trkpt>
<trkpt lat="30.615180969" lon="34.803562164">
<ele>835.5</ele>
<time>2013-11-23T13:56:29Z</time>
<speed>2.640000</speed>
<extensions>
<speed>2.6</speed>
<temp>0.00</temp>
<bpm>0</bpm>
<rpm>0.00</rpm>
</extensions>
</trkpt>
<trkpt lat="30.616380692" lon="34.803661346">
<ele>841.4</ele>
<time>2013-11-23T13:57:39Z</time>
<speed>0.020000</speed>
<extensions>
<speed>0.0</speed>
<temp>0.00</temp>
<bpm>0</bpm>
<rpm>0.00</rpm>
</extensions>
</trkpt>
<trkpt lat="30.616386414" lon="34.802215576">
<ele>840.5</ele>
<time>2013-11-23T13:58:34Z</time>
<speed>3.500000</speed>
<extensions>
<speed>3.5</speed>
<temp>0.00</temp>
<bpm>0</bpm>
<rpm>0.00</rpm>
</extensions>
</trkpt>
<trkpt lat="30.616628647" lon="34.800815582">
<ele>836.6</ele>
<time>2013-11-23T13:58:59Z</time>
<speed>5.300000</speed>
<extensions>
<speed>5.3</speed>
<temp>0.00</temp>
<bpm>0</bpm>
<rpm>0.00</rpm>
</extensions>
</trkpt>
<trkpt lat="30.616765976" lon="34.800636292">
<ele>836.2</ele>
<time>2013-11-23T13:59:04Z</time>
<speed>4.830000</speed>
<extensions>
<speed>4.8</speed>
<temp>0.00</temp>
<bpm>0</bpm>
<rpm>0.00</rpm>
</extensions>
</trkpt>
<trkpt lat="30.617685318" lon="34.800819397">
<ele>836.1</ele>
<time>2013-11-23T13:59:24Z</time>
<speed>4.680000</speed>
<extensions>
<speed>4.7</speed>
<temp>0.00</temp>
<bpm>0</bpm>
<rpm>0.00</rpm>
</extensions>
</trkpt>
<trkpt lat="30.618511200" lon="34.800575256">
<ele>832.7</ele>
<time>2013-11-23T13:59:44Z</time>
<speed>4.310000</speed>
<extensions>
<speed>4.3</speed>
<temp>0.00</temp>
<bpm>0</bpm>
<rpm>0.00</rpm>
</extensions>
</trkpt>
<trkpt lat="30.618637085" lon="34.801738739">
<ele>836.8</ele>
<time>2013-11-23T14:07:39Z</time>
<extensions>
<speed>0.0</speed>
<temp>0.00</temp>
<bpm>0</bpm>
<rpm>0.00</rpm>
</extensions>
</trkpt>
</trkseg>
</trk>
</gpx>